<?xml version="1.0" encoding="UTF-8" standalone="no" ?>
<gpx xmlns="http://www.topografix.com/GPX/1/1" xmlns:xsi="http://www.w3.org/2001/XMLSchema-instance" xsi:schemaLocation="http://www.topografix.com/GPX/1/1 http://www.topografix.com/GPX/1/1/gpx.xsd" version="1.1" creator="VisuGPX - https://www.visugpx.com">
  <metadata>
    <name>courtaou d'empièye</name>
    <desc><![CDATA[grp_trc:[visibles]]]></desc>
  </metadata>
  <trk>
    <name><![CDATA[11 janv. 2021]]></name>
    <cmt><![CDATA[09:51:21]]></cmt>
    <desc><![CDATA[comment ...]]></desc>
    <trkseg>
      <trkpt lat="42.98451" lon="0.22705">
        <ele>853</ele>
        <time>2021-01-11T08:51:17Z</time>
      </trkpt>
      <trkpt lat="42.98451" lon="0.22705">
        <ele>853</ele>
        <time>2021-01-11T08:51:18Z</time>
      </trkpt>
      <trkpt lat="42.98449" lon="0.22697">
        <ele>852</ele>
        <time>2021-01-11T08:55:41Z</time>
      </trkpt>
      <trkpt lat="42.98446" lon="0.22701">
        <ele>851</ele>
        <time>2021-01-11T08:55:51Z</time>
      </trkpt>
      <trkpt lat="42.98442" lon="0.22703">
        <ele>850</ele>
        <time>2021-01-11T08:55:53Z</time>
      </trkpt>
      <trkpt lat="42.98435" lon="0.22707">
        <ele>850</ele>
        <time>2021-01-11T08:56:00Z</time>
      </trkpt>
      <trkpt lat="42.98432" lon="0.22699">
        <ele>850</ele>
        <time>2021-01-11T08:56:10Z</time>
      </trkpt>
      <trkpt lat="42.98431" lon="0.22691">
        <ele>850</ele>
        <time>2021-01-11T08:56:16Z</time>
      </trkpt>
      <trkpt lat="42.98432" lon="0.22683">
        <ele>851</ele>
        <time>2021-01-11T08:56:35Z</time>
      </trkpt>
      <trkpt lat="42.98427" lon="0.22677">
        <ele>852</ele>
        <time>2021-01-11T08:56:41Z</time>
      </trkpt>
      <trkpt lat="42.98423" lon="0.2267">
        <ele>852</ele>
        <time>2021-01-11T08:56:47Z</time>
      </trkpt>
      <trkpt lat="42.98418" lon="0.22665">
        <ele>853</ele>
        <time>2021-01-11T08:56:53Z</time>
      </trkpt>
      <trkpt lat="42.98409" lon="0.22661">
        <ele>852</ele>
        <time>2021-01-11T08:56:59Z</time>
      </trkpt>
      <trkpt lat="42.98406" lon="0.22658">
        <ele>852</ele>
        <time>2021-01-11T08:57:03Z</time>
      </trkpt>
      <trkpt lat="42.98404" lon="0.22653">
        <ele>852</ele>
        <time>2021-01-11T08:57:10Z</time>
      </trkpt>
      <trkpt lat="42.98403" lon="0.22646">
        <ele>852</ele>
        <time>2021-01-11T08:57:18Z</time>
      </trkpt>
      <trkpt lat="42.98404" lon="0.22639">
        <ele>854</ele>
        <time>2021-01-11T08:57:24Z</time>
      </trkpt>
      <trkpt lat="42.98405" lon="0.22633">
        <ele>855</ele>
        <time>2021-01-11T08:57:29Z</time>
      </trkpt>
      <trkpt lat="42.9841" lon="0.22628">
        <ele>856</ele>
        <time>2021-01-11T08:57:47Z</time>
      </trkpt>
      <trkpt lat="42.98415" lon="0.22628">
        <ele>857</ele>
        <time>2021-01-11T08:57:54Z</time>
      </trkpt>
      <trkpt lat="42.98428" lon="0.2262">
        <ele>857</ele>
        <time>2021-01-11T08:58:09Z</time>
      </trkpt>
      <trkpt lat="42.98434" lon="0.2262">
        <ele>857</ele>
        <time>2021-01-11T08:58:13Z</time>
      </trkpt>
      <trkpt lat="42.98441" lon="0.2262">
        <ele>857</ele>
        <time>2021-01-11T08:58:18Z</time>
      </trkpt>
      <trkpt lat="42.9845" lon="0.22619">
        <ele>859</ele>
        <time>2021-01-11T08:58:28Z</time>
      </trkpt>
      <trkpt lat="42.98455" lon="0.22614">
        <ele>859</ele>
        <time>2021-01-11T08:58:35Z</time>
      </trkpt>
      <trkpt lat="42.98455" lon="0.22608">
        <ele>862</ele>
        <time>2021-01-11T08:58:43Z</time>
      </trkpt>
      <trkpt lat="42.98455" lon="0.22603">
        <ele>862</ele>
        <time>2021-01-11T08:58:48Z</time>
      </trkpt>
      <trkpt lat="42.98454" lon="0.22597">
        <ele>864</ele>
        <time>2021-01-11T08:58:52Z</time>
      </trkpt>
      <trkpt lat="42.98452" lon="0.22593">
        <ele>863</ele>
        <time>2021-01-11T08:58:57Z</time>
      </trkpt>
      <trkpt lat="42.9845" lon="0.22589">
        <ele>864</ele>
        <time>2021-01-11T08:59:02Z</time>
      </trkpt>
      <trkpt lat="42.98449" lon="0.22576">
        <ele>865</ele>
        <time>2021-01-11T08:59:11Z</time>
      </trkpt>
      <trkpt lat="42.98448" lon="0.22571">
        <ele>865</ele>
        <time>2021-01-11T08:59:17Z</time>
      </trkpt>
      <trkpt lat="42.9845" lon="0.22563">
        <ele>867</ele>
        <time>2021-01-11T08:59:53Z</time>
      </trkpt>
      <trkpt lat="42.98451" lon="0.22557">
        <ele>871</ele>
        <time>2021-01-11T09:02:03Z</time>
      </trkpt>
      <trkpt lat="42.98452" lon="0.2256">
        <ele>872</ele>
        <time>2021-01-11T09:04:48Z</time>
      </trkpt>
      <trkpt lat="42.98456" lon="0.22555">
        <ele>872</ele>
        <time>2021-01-11T09:04:53Z</time>
      </trkpt>
      <trkpt lat="42.98462" lon="0.22547">
        <ele>872</ele>
        <time>2021-01-11T09:05:01Z</time>
      </trkpt>
      <trkpt lat="42.98465" lon="0.22541">
        <ele>872</ele>
        <time>2021-01-11T09:05:11Z</time>
      </trkpt>
      <trkpt lat="42.98471" lon="0.22537">
        <ele>873</ele>
        <time>2021-01-11T09:05:18Z</time>
      </trkpt>
      <trkpt lat="42.98476" lon="0.22535">
        <ele>874</ele>
        <time>2021-01-11T09:05:26Z</time>
      </trkpt>
      <trkpt lat="42.98479" lon="0.22529">
        <ele>875</ele>
        <time>2021-01-11T09:05:36Z</time>
      </trkpt>
      <trkpt lat="42.98498" lon="0.22512">
        <ele>879</ele>
        <time>2021-01-11T09:06:06Z</time>
      </trkpt>
      <trkpt lat="42.98516" lon="0.22494">
        <ele>884</ele>
        <time>2021-01-11T09:06:40Z</time>
      </trkpt>
      <trkpt lat="42.98522" lon="0.22491">
        <ele>885</ele>
        <time>2021-01-11T09:06:49Z</time>
      </trkpt>
      <trkpt lat="42.98526" lon="0.22486">
        <ele>888</ele>
        <time>2021-01-11T09:07:00Z</time>
      </trkpt>
      <trkpt lat="42.98529" lon="0.2248">
        <ele>891</ele>
        <time>2021-01-11T09:07:29Z</time>
      </trkpt>
      <trkpt lat="42.98539" lon="0.22468">
        <ele>894</ele>
        <time>2021-01-11T09:07:43Z</time>
      </trkpt>
      <trkpt lat="42.98549" lon="0.22463">
        <ele>896</ele>
        <time>2021-01-11T09:08:02Z</time>
      </trkpt>
      <trkpt lat="42.98553" lon="0.22457">
        <ele>898</ele>
        <time>2021-01-11T09:08:33Z</time>
      </trkpt>
      <trkpt lat="42.98554" lon="0.2245">
        <ele>899</ele>
        <time>2021-01-11T09:08:46Z</time>
      </trkpt>
      <trkpt lat="42.9855" lon="0.22444">
        <ele>901</ele>
        <time>2021-01-11T09:08:57Z</time>
      </trkpt>
      <trkpt lat="42.9855" lon="0.22436">
        <ele>902</ele>
        <time>2021-01-11T09:09:05Z</time>
      </trkpt>
      <trkpt lat="42.98551" lon="0.22429">
        <ele>906</ele>
        <time>2021-01-11T09:09:38Z</time>
      </trkpt>
      <trkpt lat="42.98551" lon="0.2242">
        <ele>907</ele>
        <time>2021-01-11T09:10:15Z</time>
      </trkpt>
      <trkpt lat="42.98552" lon="0.22415">
        <ele>910</ele>
        <time>2021-01-11T09:10:22Z</time>
      </trkpt>
      <trkpt lat="42.9855" lon="0.2241">
        <ele>910</ele>
        <time>2021-01-11T09:10:27Z</time>
      </trkpt>
      <trkpt lat="42.98548" lon="0.22401">
        <ele>911</ele>
        <time>2021-01-11T09:10:36Z</time>
      </trkpt>
      <trkpt lat="42.98547" lon="0.22397">
        <ele>912</ele>
        <time>2021-01-11T09:10:43Z</time>
      </trkpt>
      <trkpt lat="42.98541" lon="0.22396">
        <ele>912</ele>
        <time>2021-01-11T09:10:50Z</time>
      </trkpt>
      <trkpt lat="42.98531" lon="0.22402">
        <ele>914</ele>
        <time>2021-01-11T09:11:21Z</time>
      </trkpt>
      <trkpt lat="42.98514" lon="0.22404">
        <ele>919</ele>
        <time>2021-01-11T09:11:56Z</time>
      </trkpt>
      <trkpt lat="42.98497" lon="0.22403">
        <ele>923</ele>
        <time>2021-01-11T09:12:36Z</time>
      </trkpt>
      <trkpt lat="42.98479" lon="0.22405">
        <ele>925</ele>
        <time>2021-01-11T09:13:21Z</time>
      </trkpt>
      <trkpt lat="42.98476" lon="0.22407">
        <ele>926</ele>
        <time>2021-01-11T09:14:24Z</time>
      </trkpt>
      <trkpt lat="42.9847" lon="0.22407">
        <ele>927</ele>
        <time>2021-01-11T09:14:54Z</time>
      </trkpt>
      <trkpt lat="42.98457" lon="0.22408">
        <ele>927</ele>
        <time>2021-01-11T09:15:05Z</time>
      </trkpt>
      <trkpt lat="42.98441" lon="0.22414">
        <ele>926</ele>
        <time>2021-01-11T09:15:24Z</time>
      </trkpt>
      <trkpt lat="42.98418" lon="0.2242">
        <ele>928</ele>
        <time>2021-01-11T09:15:40Z</time>
      </trkpt>
      <trkpt lat="42.98415" lon="0.22421">
        <ele>928</ele>
        <time>2021-01-11T09:15:43Z</time>
      </trkpt>
      <trkpt lat="42.98402" lon="0.22424">
        <ele>929</ele>
        <time>2021-01-11T09:15:55Z</time>
      </trkpt>
      <trkpt lat="42.98391" lon="0.22427">
        <ele>930</ele>
        <time>2021-01-11T09:16:07Z</time>
      </trkpt>
      <trkpt lat="42.98376" lon="0.22418">
        <ele>932</ele>
        <time>2021-01-11T09:16:26Z</time>
      </trkpt>
      <trkpt lat="42.98372" lon="0.22417">
        <ele>932</ele>
        <time>2021-01-11T09:16:30Z</time>
      </trkpt>
      <trkpt lat="42.98369" lon="0.22418">
        <ele>933</ele>
        <time>2021-01-11T09:16:34Z</time>
      </trkpt>
      <trkpt lat="42.98355" lon="0.22423">
        <ele>933</ele>
        <time>2021-01-11T09:16:51Z</time>
      </trkpt>
      <trkpt lat="42.98345" lon="0.22424">
        <ele>935</ele>
        <time>2021-01-11T09:17:01Z</time>
      </trkpt>
      <trkpt lat="42.9832" lon="0.22429">
        <ele>935</ele>
        <time>2021-01-11T09:17:33Z</time>
      </trkpt>
      <trkpt lat="42.98292" lon="0.22433">
        <ele>937</ele>
        <time>2021-01-11T09:18:44Z</time>
      </trkpt>
      <trkpt lat="42.98283" lon="0.22434">
        <ele>937</ele>
        <time>2021-01-11T09:19:14Z</time>
      </trkpt>
      <trkpt lat="42.98277" lon="0.22433">
        <ele>938</ele>
        <time>2021-01-11T09:19:19Z</time>
      </trkpt>
      <trkpt lat="42.98274" lon="0.22434">
        <ele>938</ele>
        <time>2021-01-11T09:19:23Z</time>
      </trkpt>
      <trkpt lat="42.98272" lon="0.22436">
        <ele>937</ele>
        <time>2021-01-11T09:19:36Z</time>
      </trkpt>
      <trkpt lat="42.98264" lon="0.22439">
        <ele>938</ele>
        <time>2021-01-11T09:19:46Z</time>
      </trkpt>
      <trkpt lat="42.98257" lon="0.22439">
        <ele>938</ele>
        <time>2021-01-11T09:20:35Z</time>
      </trkpt>
      <trkpt lat="42.98239" lon="0.22444">
        <ele>939</ele>
        <time>2021-01-11T09:20:49Z</time>
      </trkpt>
      <trkpt lat="42.98235" lon="0.22444">
        <ele>940</ele>
        <time>2021-01-11T09:20:52Z</time>
      </trkpt>
      <trkpt lat="42.98231" lon="0.22445">
        <ele>941</ele>
        <time>2021-01-11T09:20:57Z</time>
      </trkpt>
      <trkpt lat="42.98228" lon="0.22442">
        <ele>940</ele>
        <time>2021-01-11T09:20:58Z</time>
      </trkpt>
      <trkpt lat="42.98201" lon="0.2245">
        <ele>942</ele>
        <time>2021-01-11T09:21:29Z</time>
      </trkpt>
      <trkpt lat="42.98197" lon="0.22449">
        <ele>943</ele>
        <time>2021-01-11T09:21:32Z</time>
      </trkpt>
      <trkpt lat="42.98191" lon="0.22448">
        <ele>945</ele>
        <time>2021-01-11T09:22:40Z</time>
      </trkpt>
      <trkpt lat="42.98186" lon="0.22448">
        <ele>945</ele>
        <time>2021-01-11T09:22:44Z</time>
      </trkpt>
      <trkpt lat="42.98182" lon="0.22448">
        <ele>945</ele>
        <time>2021-01-11T09:22:47Z</time>
      </trkpt>
      <trkpt lat="42.98148" lon="0.22453">
        <ele>946</ele>
        <time>2021-01-11T09:23:18Z</time>
      </trkpt>
      <trkpt lat="42.98142" lon="0.22451">
        <ele>947</ele>
        <time>2021-01-11T09:23:38Z</time>
      </trkpt>
      <trkpt lat="42.98139" lon="0.22454">
        <ele>947</ele>
        <time>2021-01-11T09:24:48Z</time>
      </trkpt>
      <trkpt lat="42.98134" lon="0.22454">
        <ele>947</ele>
        <time>2021-01-11T09:25:11Z</time>
      </trkpt>
      <trkpt lat="42.9813" lon="0.22453">
        <ele>948</ele>
        <time>2021-01-11T09:25:36Z</time>
      </trkpt>
      <trkpt lat="42.98109" lon="0.22457">
        <ele>949</ele>
        <time>2021-01-11T09:25:59Z</time>
      </trkpt>
      <trkpt lat="42.9809" lon="0.22461">
        <ele>951</ele>
        <time>2021-01-11T09:26:29Z</time>
      </trkpt>
      <trkpt lat="42.98083" lon="0.22462">
        <ele>952</ele>
        <time>2021-01-11T09:27:17Z</time>
      </trkpt>
      <trkpt lat="42.98072" lon="0.22465">
        <ele>953</ele>
        <time>2021-01-11T09:27:45Z</time>
      </trkpt>
      <trkpt lat="42.98054" lon="0.22469">
        <ele>954</ele>
        <time>2021-01-11T09:28:08Z</time>
      </trkpt>
      <trkpt lat="42.98041" lon="0.22471">
        <ele>954</ele>
        <time>2021-01-11T09:28:15Z</time>
      </trkpt>
      <trkpt lat="42.98033" lon="0.22471">
        <ele>955</ele>
        <time>2021-01-11T09:28:18Z</time>
      </trkpt>
      <trkpt lat="42.98025" lon="0.22469">
        <ele>955</ele>
        <time>2021-01-11T09:28:22Z</time>
      </trkpt>
      <trkpt lat="42.98004" lon="0.22477">
        <ele>956</ele>
        <time>2021-01-11T09:28:38Z</time>
      </trkpt>
      <trkpt lat="42.97986" lon="0.22479">
        <ele>956</ele>
        <time>2021-01-11T09:28:58Z</time>
      </trkpt>
      <trkpt lat="42.97983" lon="0.22478">
        <ele>957</ele>
        <time>2021-01-11T09:29:01Z</time>
      </trkpt>
      <trkpt lat="42.97973" lon="0.22477">
        <ele>957</ele>
        <time>2021-01-11T09:29:16Z</time>
      </trkpt>
      <trkpt lat="42.9797" lon="0.22477">
        <ele>956</ele>
        <time>2021-01-11T09:29:18Z</time>
      </trkpt>
      <trkpt lat="42.97965" lon="0.2248">
        <ele>957</ele>
        <time>2021-01-11T09:29:33Z</time>
      </trkpt>
      <trkpt lat="42.97948" lon="0.22482">
        <ele>957</ele>
        <time>2021-01-11T09:29:54Z</time>
      </trkpt>
      <trkpt lat="42.97945" lon="0.22486">
        <ele>954</ele>
        <time>2021-01-11T09:29:59Z</time>
      </trkpt>
      <trkpt lat="42.9794" lon="0.22486">
        <ele>953</ele>
        <time>2021-01-11T09:30:03Z</time>
      </trkpt>
      <trkpt lat="42.97936" lon="0.22485">
        <ele>952</ele>
        <time>2021-01-11T09:30:07Z</time>
      </trkpt>
      <trkpt lat="42.97931" lon="0.22486">
        <ele>952</ele>
        <time>2021-01-11T09:30:12Z</time>
      </trkpt>
      <trkpt lat="42.97925" lon="0.22488">
        <ele>953</ele>
        <time>2021-01-11T09:30:17Z</time>
      </trkpt>
      <trkpt lat="42.97909" lon="0.22488">
        <ele>957</ele>
        <time>2021-01-11T09:30:47Z</time>
      </trkpt>
      <trkpt lat="42.97906" lon="0.22486">
        <ele>957</ele>
        <time>2021-01-11T09:31:01Z</time>
      </trkpt>
      <trkpt lat="42.97906" lon="0.22489">
        <ele>959</ele>
        <time>2021-01-11T09:31:13Z</time>
      </trkpt>
      <trkpt lat="42.97889" lon="0.22493">
        <ele>959</ele>
        <time>2021-01-11T09:31:35Z</time>
      </trkpt>
      <trkpt lat="42.97875" lon="0.225">
        <ele>960</ele>
        <time>2021-01-11T09:31:51Z</time>
      </trkpt>
      <trkpt lat="42.97864" lon="0.22501">
        <ele>962</ele>
        <time>2021-01-11T09:32:13Z</time>
      </trkpt>
      <trkpt lat="42.97857" lon="0.225">
        <ele>963</ele>
        <time>2021-01-11T09:32:18Z</time>
      </trkpt>
      <trkpt lat="42.97842" lon="0.22488">
        <ele>966</ele>
        <time>2021-01-11T09:33:05Z</time>
      </trkpt>
      <trkpt lat="42.97829" lon="0.22477">
        <ele>967</ele>
        <time>2021-01-11T09:33:15Z</time>
      </trkpt>
      <trkpt lat="42.9781" lon="0.22457">
        <ele>971</ele>
        <time>2021-01-11T09:33:47Z</time>
      </trkpt>
      <trkpt lat="42.9779" lon="0.22448">
        <ele>974</ele>
        <time>2021-01-11T09:34:02Z</time>
      </trkpt>
      <trkpt lat="42.97786" lon="0.2245">
        <ele>974</ele>
        <time>2021-01-11T09:34:10Z</time>
      </trkpt>
      <trkpt lat="42.97781" lon="0.22447">
        <ele>975</ele>
        <time>2021-01-11T09:34:31Z</time>
      </trkpt>
      <trkpt lat="42.9777" lon="0.22443">
        <ele>978</ele>
        <time>2021-01-11T09:34:44Z</time>
      </trkpt>
      <trkpt lat="42.97764" lon="0.2244">
        <ele>980</ele>
        <time>2021-01-11T09:34:57Z</time>
      </trkpt>
      <trkpt lat="42.97753" lon="0.22436">
        <ele>981</ele>
        <time>2021-01-11T09:35:12Z</time>
      </trkpt>
      <trkpt lat="42.97743" lon="0.22429">
        <ele>988</ele>
        <time>2021-01-11T09:35:52Z</time>
      </trkpt>
      <trkpt lat="42.97738" lon="0.22424">
        <ele>989</ele>
        <time>2021-01-11T09:36:03Z</time>
      </trkpt>
      <trkpt lat="42.97733" lon="0.22417">
        <ele>991</ele>
        <time>2021-01-11T09:36:09Z</time>
      </trkpt>
      <trkpt lat="42.97727" lon="0.22411">
        <ele>992</ele>
        <time>2021-01-11T09:36:14Z</time>
      </trkpt>
      <trkpt lat="42.97724" lon="0.22406">
        <ele>992</ele>
        <time>2021-01-11T09:36:17Z</time>
      </trkpt>
      <trkpt lat="42.9772" lon="0.22402">
        <ele>993</ele>
        <time>2021-01-11T09:36:20Z</time>
      </trkpt>
      <trkpt lat="42.97718" lon="0.22399">
        <ele>993</ele>
        <time>2021-01-11T09:36:23Z</time>
      </trkpt>
      <trkpt lat="42.97711" lon="0.224">
        <ele>995</ele>
        <time>2021-01-11T09:36:38Z</time>
      </trkpt>
      <trkpt lat="42.97706" lon="0.22395">
        <ele>998</ele>
        <time>2021-01-11T09:37:48Z</time>
      </trkpt>
      <trkpt lat="42.97704" lon="0.22392">
        <ele>1002</ele>
        <time>2021-01-11T09:38:23Z</time>
      </trkpt>
      <trkpt lat="42.97702" lon="0.22389">
        <ele>1003</ele>
        <time>2021-01-11T09:38:42Z</time>
      </trkpt>
      <trkpt lat="42.977" lon="0.22386">
        <ele>1004</ele>
        <time>2021-01-11T09:38:46Z</time>
      </trkpt>
      <trkpt lat="42.97696" lon="0.22387">
        <ele>1004</ele>
        <time>2021-01-11T09:38:51Z</time>
      </trkpt>
      <trkpt lat="42.97692" lon="0.22386">
        <ele>1003</ele>
        <time>2021-01-11T09:38:56Z</time>
      </trkpt>
      <trkpt lat="42.97689" lon="0.22383">
        <ele>1004</ele>
        <time>2021-01-11T09:39:02Z</time>
      </trkpt>
      <trkpt lat="42.97686" lon="0.2238">
        <ele>1007</ele>
        <time>2021-01-11T09:39:06Z</time>
      </trkpt>
      <trkpt lat="42.97684" lon="0.22378">
        <ele>1009</ele>
        <time>2021-01-11T09:39:10Z</time>
      </trkpt>
      <trkpt lat="42.97682" lon="0.2238">
        <ele>1010</ele>
        <time>2021-01-11T09:39:15Z</time>
      </trkpt>
      <trkpt lat="42.97678" lon="0.22381">
        <ele>1010</ele>
        <time>2021-01-11T09:39:21Z</time>
      </trkpt>
      <trkpt lat="42.97675" lon="0.22383">
        <ele>1008</ele>
        <time>2021-01-11T09:39:28Z</time>
      </trkpt>
      <trkpt lat="42.97666" lon="0.2238">
        <ele>1014</ele>
        <time>2021-01-11T09:39:49Z</time>
      </trkpt>
      <trkpt lat="42.97662" lon="0.22379">
        <ele>1016</ele>
        <time>2021-01-11T09:39:57Z</time>
      </trkpt>
      <trkpt lat="42.97655" lon="0.22376">
        <ele>1019</ele>
        <time>2021-01-11T09:40:12Z</time>
      </trkpt>
      <trkpt lat="42.97652" lon="0.22374">
        <ele>1023</ele>
        <time>2021-01-11T09:40:46Z</time>
      </trkpt>
      <trkpt lat="42.97649" lon="0.2237">
        <ele>1026</ele>
        <time>2021-01-11T09:40:51Z</time>
      </trkpt>
      <trkpt lat="42.97645" lon="0.22368">
        <ele>1027</ele>
        <time>2021-01-11T09:40:59Z</time>
      </trkpt>
      <trkpt lat="42.97642" lon="0.22368">
        <ele>1027</ele>
        <time>2021-01-11T09:41:05Z</time>
      </trkpt>
      <trkpt lat="42.97642" lon="0.22375">
        <ele>1027</ele>
        <time>2021-01-11T09:43:07Z</time>
      </trkpt>
      <trkpt lat="42.97639" lon="0.22374">
        <ele>1026</ele>
        <time>2021-01-11T09:43:10Z</time>
      </trkpt>
      <trkpt lat="42.97635" lon="0.22371">
        <ele>1027</ele>
        <time>2021-01-11T09:43:14Z</time>
      </trkpt>
      <trkpt lat="42.97622" lon="0.22361">
        <ele>1029</ele>
        <time>2021-01-11T09:43:36Z</time>
      </trkpt>
      <trkpt lat="42.97609" lon="0.22358">
        <ele>1032</ele>
        <time>2021-01-11T09:43:59Z</time>
      </trkpt>
      <trkpt lat="42.97605" lon="0.22355">
        <ele>1034</ele>
        <time>2021-01-11T09:44:08Z</time>
      </trkpt>
      <trkpt lat="42.97602" lon="0.22353">
        <ele>1035</ele>
        <time>2021-01-11T09:44:15Z</time>
      </trkpt>
      <trkpt lat="42.97599" lon="0.2235">
        <ele>1037</ele>
        <time>2021-01-11T09:44:21Z</time>
      </trkpt>
      <trkpt lat="42.97596" lon="0.22351">
        <ele>1038</ele>
        <time>2021-01-11T09:44:27Z</time>
      </trkpt>
      <trkpt lat="42.97593" lon="0.22352">
        <ele>1038</ele>
        <time>2021-01-11T09:44:32Z</time>
      </trkpt>
      <trkpt lat="42.97589" lon="0.22349">
        <ele>1039</ele>
        <time>2021-01-11T09:44:38Z</time>
      </trkpt>
      <trkpt lat="42.97582" lon="0.22348">
        <ele>1042</ele>
        <time>2021-01-11T09:44:54Z</time>
      </trkpt>
      <trkpt lat="42.97574" lon="0.22351">
        <ele>1047</ele>
        <time>2021-01-11T09:45:07Z</time>
      </trkpt>
      <trkpt lat="42.9757" lon="0.2235">
        <ele>1048</ele>
        <time>2021-01-11T09:45:19Z</time>
      </trkpt>
      <trkpt lat="42.97567" lon="0.22347">
        <ele>1051</ele>
        <time>2021-01-11T09:45:34Z</time>
      </trkpt>
      <trkpt lat="42.97564" lon="0.22346">
        <ele>1052</ele>
        <time>2021-01-11T09:45:39Z</time>
      </trkpt>
      <trkpt lat="42.9756" lon="0.22346">
        <ele>1052</ele>
        <time>2021-01-11T09:45:44Z</time>
      </trkpt>
      <trkpt lat="42.97557" lon="0.2235">
        <ele>1053</ele>
        <time>2021-01-11T09:45:51Z</time>
      </trkpt>
      <trkpt lat="42.97553" lon="0.2235">
        <ele>1055</ele>
        <time>2021-01-11T09:45:59Z</time>
      </trkpt>
      <trkpt lat="42.97549" lon="0.22351">
        <ele>1054</ele>
        <time>2021-01-11T09:46:08Z</time>
      </trkpt>
      <trkpt lat="42.97541" lon="0.22347">
        <ele>1058</ele>
        <time>2021-01-11T09:46:22Z</time>
      </trkpt>
      <trkpt lat="42.97538" lon="0.22347">
        <ele>1060</ele>
        <time>2021-01-11T09:46:30Z</time>
      </trkpt>
      <trkpt lat="42.97522" lon="0.2235">
        <ele>1064</ele>
        <time>2021-01-11T09:47:00Z</time>
      </trkpt>
      <trkpt lat="42.97515" lon="0.22352">
        <ele>1066</ele>
        <time>2021-01-11T09:47:13Z</time>
      </trkpt>
      <trkpt lat="42.97508" lon="0.22351">
        <ele>1068</ele>
        <time>2021-01-11T09:47:27Z</time>
      </trkpt>
      <trkpt lat="42.97504" lon="0.22348">
        <ele>1070</ele>
        <time>2021-01-11T09:47:32Z</time>
      </trkpt>
      <trkpt lat="42.97504" lon="0.22366">
        <ele>1072</ele>
        <time>2021-01-11T09:47:53Z</time>
      </trkpt>
      <trkpt lat="42.97504" lon="0.22357">
        <ele>1074</ele>
        <time>2021-01-11T09:48:14Z</time>
      </trkpt>
      <trkpt lat="42.975" lon="0.22351">
        <ele>1074</ele>
        <time>2021-01-11T09:49:13Z</time>
      </trkpt>
      <trkpt lat="42.97497" lon="0.22353">
        <ele>1074</ele>
        <time>2021-01-11T09:49:18Z</time>
      </trkpt>
      <trkpt lat="42.97478" lon="0.22353">
        <ele>1079</ele>
        <time>2021-01-11T09:49:52Z</time>
      </trkpt>
      <trkpt lat="42.97459" lon="0.22355">
        <ele>1084</ele>
        <time>2021-01-11T09:50:23Z</time>
      </trkpt>
      <trkpt lat="42.97452" lon="0.22354">
        <ele>1086</ele>
        <time>2021-01-11T09:50:37Z</time>
      </trkpt>
      <trkpt lat="42.97449" lon="0.22353">
        <ele>1088</ele>
        <time>2021-01-11T09:50:44Z</time>
      </trkpt>
      <trkpt lat="42.97437" lon="0.22352">
        <ele>1092</ele>
        <time>2021-01-11T09:51:08Z</time>
      </trkpt>
      <trkpt lat="42.97433" lon="0.22354">
        <ele>1093</ele>
        <time>2021-01-11T09:51:14Z</time>
      </trkpt>
      <trkpt lat="42.97428" lon="0.22356">
        <ele>1096</ele>
        <time>2021-01-11T09:51:26Z</time>
      </trkpt>
      <trkpt lat="42.97424" lon="0.22354">
        <ele>1097</ele>
        <time>2021-01-11T09:51:33Z</time>
      </trkpt>
      <trkpt lat="42.97419" lon="0.22353">
        <ele>1098</ele>
        <time>2021-01-11T09:51:49Z</time>
      </trkpt>
      <trkpt lat="42.9741" lon="0.22353">
        <ele>1101</ele>
        <time>2021-01-11T09:52:09Z</time>
      </trkpt>
      <trkpt lat="42.97401" lon="0.22349">
        <ele>1104</ele>
        <time>2021-01-11T09:52:28Z</time>
      </trkpt>
      <trkpt lat="42.97395" lon="0.22348">
        <ele>1106</ele>
        <time>2021-01-11T09:52:34Z</time>
      </trkpt>
      <trkpt lat="42.9739" lon="0.22347">
        <ele>1108</ele>
        <time>2021-01-11T09:52:39Z</time>
      </trkpt>
      <trkpt lat="42.97381" lon="0.22343">
        <ele>1112</ele>
        <time>2021-01-11T09:52:56Z</time>
      </trkpt>
      <trkpt lat="42.97382" lon="0.22336">
        <ele>1114</ele>
        <time>2021-01-11T09:55:12Z</time>
      </trkpt>
      <trkpt lat="42.97376" lon="0.22339">
        <ele>1114</ele>
        <time>2021-01-11T09:55:40Z</time>
      </trkpt>
      <trkpt lat="42.97373" lon="0.22338">
        <ele>1116</ele>
        <time>2021-01-11T09:55:44Z</time>
      </trkpt>
      <trkpt lat="42.97353" lon="0.22333">
        <ele>1119</ele>
        <time>2021-01-11T09:56:18Z</time>
      </trkpt>
      <trkpt lat="42.97334" lon="0.22329">
        <ele>1125</ele>
        <time>2021-01-11T09:56:53Z</time>
      </trkpt>
      <trkpt lat="42.9733" lon="0.22328">
        <ele>1125</ele>
        <time>2021-01-11T09:57:01Z</time>
      </trkpt>
      <trkpt lat="42.97317" lon="0.22322">
        <ele>1131</ele>
        <time>2021-01-11T09:57:26Z</time>
      </trkpt>
      <trkpt lat="42.9731" lon="0.22321">
        <ele>1132</ele>
        <time>2021-01-11T09:57:40Z</time>
      </trkpt>
      <trkpt lat="42.97297" lon="0.22317">
        <ele>1136</ele>
        <time>2021-01-11T09:58:10Z</time>
      </trkpt>
      <trkpt lat="42.97293" lon="0.22314">
        <ele>1138</ele>
        <time>2021-01-11T09:58:18Z</time>
      </trkpt>
      <trkpt lat="42.97289" lon="0.22313">
        <ele>1139</ele>
        <time>2021-01-11T09:58:25Z</time>
      </trkpt>
      <trkpt lat="42.97282" lon="0.22309">
        <ele>1142</ele>
        <time>2021-01-11T09:58:43Z</time>
      </trkpt>
      <trkpt lat="42.97274" lon="0.22308">
        <ele>1144</ele>
        <time>2021-01-11T09:59:01Z</time>
      </trkpt>
      <trkpt lat="42.97271" lon="0.22306">
        <ele>1145</ele>
        <time>2021-01-11T09:59:11Z</time>
      </trkpt>
      <trkpt lat="42.97264" lon="0.22304">
        <ele>1147</ele>
        <time>2021-01-11T09:59:25Z</time>
      </trkpt>
      <trkpt lat="42.9726" lon="0.22303">
        <ele>1149</ele>
        <time>2021-01-11T09:59:32Z</time>
      </trkpt>
      <trkpt lat="42.97255" lon="0.22305">
        <ele>1149</ele>
        <time>2021-01-11T09:59:51Z</time>
      </trkpt>
      <trkpt lat="42.97253" lon="0.223">
        <ele>1152</ele>
        <time>2021-01-11T09:59:55Z</time>
      </trkpt>
      <trkpt lat="42.9725" lon="0.22297">
        <ele>1154</ele>
        <time>2021-01-11T09:59:59Z</time>
      </trkpt>
      <trkpt lat="42.97246" lon="0.22299">
        <ele>1155</ele>
        <time>2021-01-11T10:00:06Z</time>
      </trkpt>
      <trkpt lat="42.97244" lon="0.22295">
        <ele>1156</ele>
        <time>2021-01-11T10:00:14Z</time>
      </trkpt>
      <trkpt lat="42.97232" lon="0.22296">
        <ele>1158</ele>
        <time>2021-01-11T10:00:37Z</time>
      </trkpt>
      <trkpt lat="42.97222" lon="0.22292">
        <ele>1161</ele>
        <time>2021-01-11T10:01:01Z</time>
      </trkpt>
      <trkpt lat="42.97216" lon="0.22295">
        <ele>1162</ele>
        <time>2021-01-11T10:01:13Z</time>
      </trkpt>
      <trkpt lat="42.97212" lon="0.22299">
        <ele>1165</ele>
        <time>2021-01-11T10:01:26Z</time>
      </trkpt>
      <trkpt lat="42.9721" lon="0.22306">
        <ele>1166</ele>
        <time>2021-01-11T10:01:35Z</time>
      </trkpt>
      <trkpt lat="42.97211" lon="0.22311">
        <ele>1168</ele>
        <time>2021-01-11T10:01:41Z</time>
      </trkpt>
      <trkpt lat="42.97212" lon="0.22316">
        <ele>1169</ele>
        <time>2021-01-11T10:01:51Z</time>
      </trkpt>
      <trkpt lat="42.97214" lon="0.22326">
        <ele>1172</ele>
        <time>2021-01-11T10:02:01Z</time>
      </trkpt>
      <trkpt lat="42.97212" lon="0.22341">
        <ele>1175</ele>
        <time>2021-01-11T10:02:27Z</time>
      </trkpt>
      <trkpt lat="42.97209" lon="0.22349">
        <ele>1176</ele>
        <time>2021-01-11T10:02:38Z</time>
      </trkpt>
      <trkpt lat="42.97205" lon="0.22354">
        <ele>1179</ele>
        <time>2021-01-11T10:02:53Z</time>
      </trkpt>
      <trkpt lat="42.972" lon="0.2235">
        <ele>1179</ele>
        <time>2021-01-11T10:03:00Z</time>
      </trkpt>
      <trkpt lat="42.97195" lon="0.22349">
        <ele>1183</ele>
        <time>2021-01-11T10:03:11Z</time>
      </trkpt>
      <trkpt lat="42.97192" lon="0.22346">
        <ele>1184</ele>
        <time>2021-01-11T10:03:16Z</time>
      </trkpt>
      <trkpt lat="42.97187" lon="0.22347">
        <ele>1186</ele>
        <time>2021-01-11T10:03:26Z</time>
      </trkpt>
      <trkpt lat="42.97182" lon="0.2235">
        <ele>1188</ele>
        <time>2021-01-11T10:03:38Z</time>
      </trkpt>
      <trkpt lat="42.97176" lon="0.2235">
        <ele>1191</ele>
        <time>2021-01-11T10:04:00Z</time>
      </trkpt>
      <trkpt lat="42.97165" lon="0.22355">
        <ele>1194</ele>
        <time>2021-01-11T10:04:25Z</time>
      </trkpt>
      <trkpt lat="42.97159" lon="0.22353">
        <ele>1197</ele>
        <time>2021-01-11T10:04:43Z</time>
      </trkpt>
      <trkpt lat="42.97155" lon="0.22348">
        <ele>1199</ele>
        <time>2021-01-11T10:04:52Z</time>
      </trkpt>
      <trkpt lat="42.97152" lon="0.22342">
        <ele>1201</ele>
        <time>2021-01-11T10:05:06Z</time>
      </trkpt>
      <trkpt lat="42.97144" lon="0.22328">
        <ele>1205</ele>
        <time>2021-01-11T10:05:38Z</time>
      </trkpt>
      <trkpt lat="42.97136" lon="0.2232">
        <ele>1208</ele>
        <time>2021-01-11T10:05:57Z</time>
      </trkpt>
      <trkpt lat="42.97132" lon="0.22318">
        <ele>1209</ele>
        <time>2021-01-11T10:06:04Z</time>
      </trkpt>
      <trkpt lat="42.97128" lon="0.22316">
        <ele>1210</ele>
        <time>2021-01-11T10:06:06Z</time>
      </trkpt>
      <trkpt lat="42.97124" lon="0.22317">
        <ele>1210</ele>
        <time>2021-01-11T10:06:09Z</time>
      </trkpt>
      <trkpt lat="42.97119" lon="0.22316">
        <ele>1211</ele>
        <time>2021-01-11T10:06:14Z</time>
      </trkpt>
      <trkpt lat="42.97119" lon="0.22314">
        <ele>1216</ele>
        <time>2021-01-11T10:06:51Z</time>
      </trkpt>
      <trkpt lat="42.97115" lon="0.22314">
        <ele>1217</ele>
        <time>2021-01-11T10:08:16Z</time>
      </trkpt>
      <trkpt lat="42.97112" lon="0.22314">
        <ele>1217</ele>
        <time>2021-01-11T10:08:19Z</time>
      </trkpt>
      <trkpt lat="42.97108" lon="0.22315">
        <ele>1218</ele>
        <time>2021-01-11T10:08:24Z</time>
      </trkpt>
      <trkpt lat="42.97105" lon="0.22314">
        <ele>1219</ele>
        <time>2021-01-11T10:08:29Z</time>
      </trkpt>
      <trkpt lat="42.97102" lon="0.22312">
        <ele>1219</ele>
        <time>2021-01-11T10:10:34Z</time>
      </trkpt>
      <trkpt lat="42.97101" lon="0.22305">
        <ele>1219</ele>
        <time>2021-01-11T10:11:56Z</time>
      </trkpt>
      <trkpt lat="42.97086" lon="0.2231">
        <ele>1222</ele>
        <time>2021-01-11T10:12:19Z</time>
      </trkpt>
      <trkpt lat="42.97077" lon="0.22314">
        <ele>1224</ele>
        <time>2021-01-11T10:12:32Z</time>
      </trkpt>
      <trkpt lat="42.97074" lon="0.22316">
        <ele>1225</ele>
        <time>2021-01-11T10:12:37Z</time>
      </trkpt>
      <trkpt lat="42.97055" lon="0.22325">
        <ele>1229</ele>
        <time>2021-01-11T10:13:12Z</time>
      </trkpt>
      <trkpt lat="42.9705" lon="0.22327">
        <ele>1229</ele>
        <time>2021-01-11T10:13:20Z</time>
      </trkpt>
      <trkpt lat="42.97042" lon="0.22327">
        <ele>1231</ele>
        <time>2021-01-11T10:13:32Z</time>
      </trkpt>
      <trkpt lat="42.97038" lon="0.22326">
        <ele>1237</ele>
        <time>2021-01-11T10:17:06Z</time>
      </trkpt>
      <trkpt lat="42.97033" lon="0.22327">
        <ele>1238</ele>
        <time>2021-01-11T10:17:12Z</time>
      </trkpt>
      <trkpt lat="42.97028" lon="0.22329">
        <ele>1239</ele>
        <time>2021-01-11T10:17:16Z</time>
      </trkpt>
      <trkpt lat="42.97009" lon="0.2234">
        <ele>1245</ele>
        <time>2021-01-11T10:17:44Z</time>
      </trkpt>
      <trkpt lat="42.97003" lon="0.22344">
        <ele>1246</ele>
        <time>2021-01-11T10:17:54Z</time>
      </trkpt>
      <trkpt lat="42.97004" lon="0.22345">
        <ele>1247</ele>
        <time>2021-01-11T10:18:09Z</time>
      </trkpt>
      <trkpt lat="42.97007" lon="0.22343">
        <ele>1246</ele>
        <time>2021-01-11T10:19:37Z</time>
      </trkpt>
      <trkpt lat="42.97001" lon="0.22345">
        <ele>1246</ele>
        <time>2021-01-11T10:23:28Z</time>
      </trkpt>
      <trkpt lat="42.96995" lon="0.22346">
        <ele>1246</ele>
        <time>2021-01-11T10:23:32Z</time>
      </trkpt>
      <trkpt lat="42.96972" lon="0.22345">
        <ele>1250</ele>
        <time>2021-01-11T10:23:58Z</time>
      </trkpt>
      <trkpt lat="42.96954" lon="0.22344">
        <ele>1254</ele>
        <time>2021-01-11T10:24:30Z</time>
      </trkpt>
      <trkpt lat="42.96946" lon="0.22341">
        <ele>1257</ele>
        <time>2021-01-11T10:24:43Z</time>
      </trkpt>
      <trkpt lat="42.96943" lon="0.22341">
        <ele>1258</ele>
        <time>2021-01-11T10:24:48Z</time>
      </trkpt>
      <trkpt lat="42.9692" lon="0.22333">
        <ele>1261</ele>
        <time>2021-01-11T10:25:22Z</time>
      </trkpt>
      <trkpt lat="42.96913" lon="0.2233">
        <ele>1264</ele>
        <time>2021-01-11T10:25:35Z</time>
      </trkpt>
      <trkpt lat="42.96904" lon="0.22324">
        <ele>1266</ele>
        <time>2021-01-11T10:25:50Z</time>
      </trkpt>
      <trkpt lat="42.96892" lon="0.2232">
        <ele>1266</ele>
        <time>2021-01-11T10:26:07Z</time>
      </trkpt>
      <trkpt lat="42.96889" lon="0.22318">
        <ele>1268</ele>
        <time>2021-01-11T10:26:13Z</time>
      </trkpt>
      <trkpt lat="42.96885" lon="0.22313">
        <ele>1270</ele>
        <time>2021-01-11T10:26:17Z</time>
      </trkpt>
      <trkpt lat="42.96883" lon="0.22314">
        <ele>1274</ele>
        <time>2021-01-11T10:26:22Z</time>
      </trkpt>
      <trkpt lat="42.96884" lon="0.22318">
        <ele>1275</ele>
        <time>2021-01-11T10:26:33Z</time>
      </trkpt>
      <trkpt lat="42.96876" lon="0.22315">
        <ele>1274</ele>
        <time>2021-01-11T10:27:05Z</time>
      </trkpt>
      <trkpt lat="42.96871" lon="0.22316">
        <ele>1274</ele>
        <time>2021-01-11T10:27:12Z</time>
      </trkpt>
      <trkpt lat="42.96868" lon="0.22317">
        <ele>1275</ele>
        <time>2021-01-11T10:27:16Z</time>
      </trkpt>
      <trkpt lat="42.96853" lon="0.22315">
        <ele>1278</ele>
        <time>2021-01-11T10:27:35Z</time>
      </trkpt>
      <trkpt lat="42.96849" lon="0.22315">
        <ele>1277</ele>
        <time>2021-01-11T10:27:41Z</time>
      </trkpt>
      <trkpt lat="42.96839" lon="0.22315">
        <ele>1279</ele>
        <time>2021-01-11T10:27:54Z</time>
      </trkpt>
      <trkpt lat="42.96831" lon="0.22313">
        <ele>1281</ele>
        <time>2021-01-11T10:28:07Z</time>
      </trkpt>
      <trkpt lat="42.96827" lon="0.22313">
        <ele>1282</ele>
        <time>2021-01-11T10:28:12Z</time>
      </trkpt>
      <trkpt lat="42.96823" lon="0.22311">
        <ele>1284</ele>
        <time>2021-01-11T10:28:17Z</time>
      </trkpt>
      <trkpt lat="42.96819" lon="0.22313">
        <ele>1284</ele>
        <time>2021-01-11T10:28:23Z</time>
      </trkpt>
      <trkpt lat="42.96814" lon="0.22312">
        <ele>1285</ele>
        <time>2021-01-11T10:28:32Z</time>
      </trkpt>
      <trkpt lat="42.96809" lon="0.22313">
        <ele>1286</ele>
        <time>2021-01-11T10:28:38Z</time>
      </trkpt>
      <trkpt lat="42.96804" lon="0.22309">
        <ele>1288</ele>
        <time>2021-01-11T10:29:25Z</time>
      </trkpt>
      <trkpt lat="42.96789" lon="0.22303">
        <ele>1289</ele>
        <time>2021-01-11T10:29:49Z</time>
      </trkpt>
      <trkpt lat="42.96783" lon="0.22301">
        <ele>1292</ele>
        <time>2021-01-11T10:30:34Z</time>
      </trkpt>
      <trkpt lat="42.96778" lon="0.22299">
        <ele>1293</ele>
        <time>2021-01-11T10:30:52Z</time>
      </trkpt>
      <trkpt lat="42.96766" lon="0.22297">
        <ele>1298</ele>
        <time>2021-01-11T10:31:24Z</time>
      </trkpt>
      <trkpt lat="42.96763" lon="0.22297">
        <ele>1299</ele>
        <time>2021-01-11T10:31:33Z</time>
      </trkpt>
      <trkpt lat="42.9676" lon="0.22293">
        <ele>1299</ele>
        <time>2021-01-11T10:31:51Z</time>
      </trkpt>
      <trkpt lat="42.96748" lon="0.2229">
        <ele>1302</ele>
        <time>2021-01-11T10:32:21Z</time>
      </trkpt>
      <trkpt lat="42.96743" lon="0.22287">
        <ele>1303</ele>
        <time>2021-01-11T10:32:25Z</time>
      </trkpt>
      <trkpt lat="42.96737" lon="0.22286">
        <ele>1305</ele>
        <time>2021-01-11T10:32:32Z</time>
      </trkpt>
      <trkpt lat="42.96733" lon="0.22285">
        <ele>1306</ele>
        <time>2021-01-11T10:32:37Z</time>
      </trkpt>
      <trkpt lat="42.96728" lon="0.2228">
        <ele>1307</ele>
        <time>2021-01-11T10:32:45Z</time>
      </trkpt>
      <trkpt lat="42.96723" lon="0.22276">
        <ele>1310</ele>
        <time>2021-01-11T10:32:55Z</time>
      </trkpt>
      <trkpt lat="42.96718" lon="0.22274">
        <ele>1311</ele>
        <time>2021-01-11T10:33:29Z</time>
      </trkpt>
      <trkpt lat="42.96713" lon="0.22269">
        <ele>1313</ele>
        <time>2021-01-11T10:33:38Z</time>
      </trkpt>
      <trkpt lat="42.96707" lon="0.22268">
        <ele>1313</ele>
        <time>2021-01-11T10:33:44Z</time>
      </trkpt>
      <trkpt lat="42.96707" lon="0.22272">
        <ele>1315</ele>
        <time>2021-01-11T10:33:59Z</time>
      </trkpt>
      <trkpt lat="42.96701" lon="0.2227">
        <ele>1318</ele>
        <time>2021-01-11T10:35:14Z</time>
      </trkpt>
      <trkpt lat="42.96696" lon="0.22266">
        <ele>1319</ele>
        <time>2021-01-11T10:35:20Z</time>
      </trkpt>
      <trkpt lat="42.96678" lon="0.22261">
        <ele>1323</ele>
        <time>2021-01-11T10:35:40Z</time>
      </trkpt>
      <trkpt lat="42.96676" lon="0.22257">
        <ele>1324</ele>
        <time>2021-01-11T10:35:46Z</time>
      </trkpt>
      <trkpt lat="42.96672" lon="0.22257">
        <ele>1324</ele>
        <time>2021-01-11T10:35:50Z</time>
      </trkpt>
      <trkpt lat="42.96669" lon="0.22255">
        <ele>1324</ele>
        <time>2021-01-11T10:35:55Z</time>
      </trkpt>
      <trkpt lat="42.96665" lon="0.22253">
        <ele>1326</ele>
        <time>2021-01-11T10:36:01Z</time>
      </trkpt>
      <trkpt lat="42.96661" lon="0.22253">
        <ele>1328</ele>
        <time>2021-01-11T10:36:08Z</time>
      </trkpt>
      <trkpt lat="42.96659" lon="0.22251">
        <ele>1329</ele>
        <time>2021-01-11T10:36:13Z</time>
      </trkpt>
      <trkpt lat="42.96655" lon="0.22251">
        <ele>1329</ele>
        <time>2021-01-11T10:36:21Z</time>
      </trkpt>
      <trkpt lat="42.96653" lon="0.22247">
        <ele>1333</ele>
        <time>2021-01-11T10:36:34Z</time>
      </trkpt>
      <trkpt lat="42.9665" lon="0.22244">
        <ele>1332</ele>
        <time>2021-01-11T10:36:55Z</time>
      </trkpt>
      <trkpt lat="42.96646" lon="0.22243">
        <ele>1334</ele>
        <time>2021-01-11T10:37:01Z</time>
      </trkpt>
      <trkpt lat="42.96637" lon="0.22238">
        <ele>1336</ele>
        <time>2021-01-11T10:37:16Z</time>
      </trkpt>
      <trkpt lat="42.96633" lon="0.22238">
        <ele>1340</ele>
        <time>2021-01-11T10:37:21Z</time>
      </trkpt>
      <trkpt lat="42.96628" lon="0.22236">
        <ele>1340</ele>
        <time>2021-01-11T10:37:27Z</time>
      </trkpt>
      <trkpt lat="42.96624" lon="0.22234">
        <ele>1341</ele>
        <time>2021-01-11T10:37:35Z</time>
      </trkpt>
      <trkpt lat="42.96621" lon="0.22234">
        <ele>1340</ele>
        <time>2021-01-11T10:38:14Z</time>
      </trkpt>
      <trkpt lat="42.96614" lon="0.22231">
        <ele>1335</ele>
        <time>2021-01-11T10:38:24Z</time>
      </trkpt>
      <trkpt lat="42.9661" lon="0.22233">
        <ele>1335</ele>
        <time>2021-01-11T10:38:28Z</time>
      </trkpt>
      <trkpt lat="42.96603" lon="0.22238">
        <ele>1338</ele>
        <time>2021-01-11T10:38:37Z</time>
      </trkpt>
      <trkpt lat="42.966" lon="0.22238">
        <ele>1339</ele>
        <time>2021-01-11T10:38:40Z</time>
      </trkpt>
      <trkpt lat="42.96597" lon="0.22239">
        <ele>1340</ele>
        <time>2021-01-11T10:38:51Z</time>
      </trkpt>
      <trkpt lat="42.96587" lon="0.22236">
        <ele>1346</ele>
        <time>2021-01-11T10:39:07Z</time>
      </trkpt>
      <trkpt lat="42.96583" lon="0.22236">
        <ele>1346</ele>
        <time>2021-01-11T10:39:13Z</time>
      </trkpt>
      <trkpt lat="42.96569" lon="0.22228">
        <ele>1348</ele>
        <time>2021-01-11T10:39:35Z</time>
      </trkpt>
      <trkpt lat="42.96564" lon="0.22229">
        <ele>1350</ele>
        <time>2021-01-11T10:39:41Z</time>
      </trkpt>
      <trkpt lat="42.9656" lon="0.2223">
        <ele>1354</ele>
        <time>2021-01-11T10:39:45Z</time>
      </trkpt>
      <trkpt lat="42.96562" lon="0.22235">
        <ele>1354</ele>
        <time>2021-01-11T10:39:53Z</time>
      </trkpt>
      <trkpt lat="42.96565" lon="0.22237">
        <ele>1353</ele>
        <time>2021-01-11T10:40:02Z</time>
      </trkpt>
      <trkpt lat="42.96559" lon="0.22236">
        <ele>1353</ele>
        <time>2021-01-11T10:40:38Z</time>
      </trkpt>
      <trkpt lat="42.96548" lon="0.2223">
        <ele>1353</ele>
        <time>2021-01-11T10:40:49Z</time>
      </trkpt>
      <trkpt lat="42.96542" lon="0.22231">
        <ele>1355</ele>
        <time>2021-01-11T10:40:57Z</time>
      </trkpt>
      <trkpt lat="42.96536" lon="0.22232">
        <ele>1357</ele>
        <time>2021-01-11T10:41:06Z</time>
      </trkpt>
      <trkpt lat="42.96533" lon="0.2223">
        <ele>1360</ele>
        <time>2021-01-11T10:41:10Z</time>
      </trkpt>
      <trkpt lat="42.96517" lon="0.22228">
        <ele>1362</ele>
        <time>2021-01-11T10:41:42Z</time>
      </trkpt>
      <trkpt lat="42.96511" lon="0.22229">
        <ele>1364</ele>
        <time>2021-01-11T10:41:49Z</time>
      </trkpt>
      <trkpt lat="42.96507" lon="0.22228">
        <ele>1366</ele>
        <time>2021-01-11T10:41:55Z</time>
      </trkpt>
      <trkpt lat="42.96501" lon="0.22225">
        <ele>1366</ele>
        <time>2021-01-11T10:42:09Z</time>
      </trkpt>
      <trkpt lat="42.96499" lon="0.22224">
        <ele>1368</ele>
        <time>2021-01-11T10:42:13Z</time>
      </trkpt>
      <trkpt lat="42.96496" lon="0.22223">
        <ele>1368</ele>
        <time>2021-01-11T10:42:18Z</time>
      </trkpt>
      <trkpt lat="42.96493" lon="0.22222">
        <ele>1368</ele>
        <time>2021-01-11T10:42:22Z</time>
      </trkpt>
      <trkpt lat="42.96491" lon="0.22222">
        <ele>1370</ele>
        <time>2021-01-11T10:42:26Z</time>
      </trkpt>
      <trkpt lat="42.96488" lon="0.22221">
        <ele>1373</ele>
        <time>2021-01-11T10:42:32Z</time>
      </trkpt>
      <trkpt lat="42.96478" lon="0.22216">
        <ele>1374</ele>
        <time>2021-01-11T10:43:04Z</time>
      </trkpt>
      <trkpt lat="42.96472" lon="0.22215">
        <ele>1374</ele>
        <time>2021-01-11T10:43:11Z</time>
      </trkpt>
      <trkpt lat="42.96462" lon="0.22208">
        <ele>1374</ele>
        <time>2021-01-11T10:43:23Z</time>
      </trkpt>
      <trkpt lat="42.96457" lon="0.22205">
        <ele>1377</ele>
        <time>2021-01-11T10:43:30Z</time>
      </trkpt>
      <trkpt lat="42.96453" lon="0.22204">
        <ele>1379</ele>
        <time>2021-01-11T10:43:35Z</time>
      </trkpt>
      <trkpt lat="42.96449" lon="0.22203">
        <ele>1382</ele>
        <time>2021-01-11T10:43:43Z</time>
      </trkpt>
      <trkpt lat="42.96433" lon="0.22197">
        <ele>1384</ele>
        <time>2021-01-11T10:44:06Z</time>
      </trkpt>
      <trkpt lat="42.96418" lon="0.22182">
        <ele>1387</ele>
        <time>2021-01-11T10:44:39Z</time>
      </trkpt>
      <trkpt lat="42.96414" lon="0.22177">
        <ele>1388</ele>
        <time>2021-01-11T10:44:49Z</time>
      </trkpt>
      <trkpt lat="42.96405" lon="0.22172">
        <ele>1390</ele>
        <time>2021-01-11T10:45:07Z</time>
      </trkpt>
      <trkpt lat="42.96389" lon="0.22154">
        <ele>1397</ele>
        <time>2021-01-11T10:45:38Z</time>
      </trkpt>
      <trkpt lat="42.96385" lon="0.22148">
        <ele>1398</ele>
        <time>2021-01-11T10:45:49Z</time>
      </trkpt>
      <trkpt lat="42.9638" lon="0.22143">
        <ele>1401</ele>
        <time>2021-01-11T10:45:58Z</time>
      </trkpt>
      <trkpt lat="42.96377" lon="0.2214">
        <ele>1402</ele>
        <time>2021-01-11T10:46:08Z</time>
      </trkpt>
      <trkpt lat="42.96374" lon="0.22137">
        <ele>1402</ele>
        <time>2021-01-11T10:46:12Z</time>
      </trkpt>
      <trkpt lat="42.96371" lon="0.22134">
        <ele>1405</ele>
        <time>2021-01-11T10:46:19Z</time>
      </trkpt>
      <trkpt lat="42.96369" lon="0.2213">
        <ele>1405</ele>
        <time>2021-01-11T10:46:23Z</time>
      </trkpt>
      <trkpt lat="42.96366" lon="0.22126">
        <ele>1406</ele>
        <time>2021-01-11T10:46:29Z</time>
      </trkpt>
      <trkpt lat="42.96359" lon="0.22113">
        <ele>1409</ele>
        <time>2021-01-11T10:46:58Z</time>
      </trkpt>
      <trkpt lat="42.96353" lon="0.22112">
        <ele>1410</ele>
        <time>2021-01-11T10:47:17Z</time>
      </trkpt>
      <trkpt lat="42.96346" lon="0.22104">
        <ele>1413</ele>
        <time>2021-01-11T10:47:32Z</time>
      </trkpt>
      <trkpt lat="42.96343" lon="0.22101">
        <ele>1414</ele>
        <time>2021-01-11T10:47:38Z</time>
      </trkpt>
      <trkpt lat="42.96339" lon="0.22099">
        <ele>1414</ele>
        <time>2021-01-11T10:47:47Z</time>
      </trkpt>
      <trkpt lat="42.96336" lon="0.22096">
        <ele>1416</ele>
        <time>2021-01-11T10:47:54Z</time>
      </trkpt>
      <trkpt lat="42.96332" lon="0.22093">
        <ele>1417</ele>
        <time>2021-01-11T10:48:03Z</time>
      </trkpt>
      <trkpt lat="42.9633" lon="0.22089">
        <ele>1418</ele>
        <time>2021-01-11T10:48:10Z</time>
      </trkpt>
      <trkpt lat="42.96327" lon="0.22086">
        <ele>1419</ele>
        <time>2021-01-11T10:48:17Z</time>
      </trkpt>
      <trkpt lat="42.96324" lon="0.22081">
        <ele>1421</ele>
        <time>2021-01-11T10:48:24Z</time>
      </trkpt>
      <trkpt lat="42.96321" lon="0.22078">
        <ele>1422</ele>
        <time>2021-01-11T10:48:30Z</time>
      </trkpt>
      <trkpt lat="42.96318" lon="0.22072">
        <ele>1424</ele>
        <time>2021-01-11T10:48:40Z</time>
      </trkpt>
      <trkpt lat="42.96314" lon="0.22066">
        <ele>1428</ele>
        <time>2021-01-11T10:48:52Z</time>
      </trkpt>
      <trkpt lat="42.96307" lon="0.22056">
        <ele>1429</ele>
        <time>2021-01-11T10:49:15Z</time>
      </trkpt>
      <trkpt lat="42.96304" lon="0.22053">
        <ele>1429</ele>
        <time>2021-01-11T10:49:21Z</time>
      </trkpt>
      <trkpt lat="42.96295" lon="0.22038">
        <ele>1434</ele>
        <time>2021-01-11T10:49:56Z</time>
      </trkpt>
      <trkpt lat="42.96292" lon="0.22035">
        <ele>1435</ele>
        <time>2021-01-11T10:50:05Z</time>
      </trkpt>
      <trkpt lat="42.96282" lon="0.22022">
        <ele>1441</ele>
        <time>2021-01-11T10:50:31Z</time>
      </trkpt>
      <trkpt lat="42.9628" lon="0.22019">
        <ele>1442</ele>
        <time>2021-01-11T10:50:42Z</time>
      </trkpt>
      <trkpt lat="42.96277" lon="0.22015">
        <ele>1443</ele>
        <time>2021-01-11T10:50:51Z</time>
      </trkpt>
      <trkpt lat="42.96274" lon="0.22013">
        <ele>1444</ele>
        <time>2021-01-11T10:50:59Z</time>
      </trkpt>
      <trkpt lat="42.96272" lon="0.22009">
        <ele>1447</ele>
        <time>2021-01-11T10:51:07Z</time>
      </trkpt>
      <trkpt lat="42.96266" lon="0.22008">
        <ele>1450</ele>
        <time>2021-01-11T10:52:40Z</time>
      </trkpt>
      <trkpt lat="42.96261" lon="0.22005">
        <ele>1453</ele>
        <time>2021-01-11T10:52:47Z</time>
      </trkpt>
      <trkpt lat="42.96258" lon="0.22001">
        <ele>1455</ele>
        <time>2021-01-11T10:53:19Z</time>
      </trkpt>
      <trkpt lat="42.96255" lon="0.22">
        <ele>1456</ele>
        <time>2021-01-11T10:53:25Z</time>
      </trkpt>
      <trkpt lat="42.96251" lon="0.22001">
        <ele>1456</ele>
        <time>2021-01-11T10:53:31Z</time>
      </trkpt>
      <trkpt lat="42.96249" lon="0.21994">
        <ele>1458</ele>
        <time>2021-01-11T10:54:20Z</time>
      </trkpt>
      <trkpt lat="42.96252" lon="0.21992">
        <ele>1458</ele>
        <time>2021-01-11T10:54:36Z</time>
      </trkpt>
      <trkpt lat="42.96249" lon="0.21998">
        <ele>1459</ele>
        <time>2021-01-11T10:55:12Z</time>
      </trkpt>
      <trkpt lat="42.96254" lon="0.22003">
        <ele>1459</ele>
        <time>2021-01-11T10:55:23Z</time>
      </trkpt>
      <trkpt lat="42.96258" lon="0.22001">
        <ele>1459</ele>
        <time>2021-01-11T10:55:34Z</time>
      </trkpt>
      <trkpt lat="42.96259" lon="0.22003">
        <ele>1459</ele>
        <time>2021-01-11T10:58:41Z</time>
      </trkpt>
      <trkpt lat="42.96256" lon="0.22005">
        <ele>1459</ele>
        <time>2021-01-11T10:58:46Z</time>
      </trkpt>
      <trkpt lat="42.96251" lon="0.22005">
        <ele>1459</ele>
        <time>2021-01-11T10:58:53Z</time>
      </trkpt>
      <trkpt lat="42.96247" lon="0.22006">
        <ele>1459</ele>
        <time>2021-01-11T10:59:00Z</time>
      </trkpt>
      <trkpt lat="42.96246" lon="0.22001">
        <ele>1458</ele>
        <time>2021-01-11T10:59:21Z</time>
      </trkpt>
      <trkpt lat="42.96247" lon="0.21996">
        <ele>1457</ele>
        <time>2021-01-11T11:00:00Z</time>
      </trkpt>
      <trkpt lat="42.96243" lon="0.22001">
        <ele>1458</ele>
        <time>2021-01-11T11:00:58Z</time>
      </trkpt>
      <trkpt lat="42.96238" lon="0.22003">
        <ele>1458</ele>
        <time>2021-01-11T11:01:06Z</time>
      </trkpt>
      <trkpt lat="42.96237" lon="0.22008">
        <ele>1458</ele>
        <time>2021-01-11T11:01:28Z</time>
      </trkpt>
      <trkpt lat="42.9624" lon="0.22007">
        <ele>1459</ele>
        <time>2021-01-11T11:03:30Z</time>
      </trkpt>
      <trkpt lat="42.96243" lon="0.22">
        <ele>1459</ele>
        <time>2021-01-11T11:04:42Z</time>
      </trkpt>
      <trkpt lat="42.96245" lon="0.21997">
        <ele>1459</ele>
        <time>2021-01-11T11:04:52Z</time>
      </trkpt>
      <trkpt lat="42.96242" lon="0.22004">
        <ele>1459</ele>
        <time>2021-01-11T11:05:49Z</time>
      </trkpt>
      <trkpt lat="42.96243" lon="0.22009">
        <ele>1459</ele>
        <time>2021-01-11T11:05:53Z</time>
      </trkpt>
      <trkpt lat="42.96246" lon="0.22011">
        <ele>1459</ele>
        <time>2021-01-11T11:06:19Z</time>
      </trkpt>
      <trkpt lat="42.9624" lon="0.22006">
        <ele>1459</ele>
        <time>2021-01-11T11:09:46Z</time>
      </trkpt>
      <trkpt lat="42.9624" lon="0.2201">
        <ele>1459</ele>
        <time>2021-01-11T11:10:28Z</time>
      </trkpt>
      <trkpt lat="42.9624" lon="0.22009">
        <ele>1459</ele>
        <time>2021-01-11T11:15:08Z</time>
      </trkpt>
      <trkpt lat="42.96243" lon="0.22006">
        <ele>1458</ele>
        <time>2021-01-11T11:22:38Z</time>
      </trkpt>
      <trkpt lat="42.96242" lon="0.22002">
        <ele>1459</ele>
        <time>2021-01-11T11:25:10Z</time>
      </trkpt>
      <trkpt lat="42.96242" lon="0.22006">
        <ele>1459</ele>
        <time>2021-01-11T11:33:20Z</time>
      </trkpt>
      <trkpt lat="42.9624" lon="0.22009">
        <ele>1460</ele>
        <time>2021-01-11T11:51:10Z</time>
      </trkpt>
      <trkpt lat="42.96243" lon="0.22007">
        <ele>1454</ele>
        <time>2021-01-11T12:11:24Z</time>
      </trkpt>
      <trkpt lat="42.96246" lon="0.22007">
        <ele>1454</ele>
        <time>2021-01-11T12:11:41Z</time>
      </trkpt>
      <trkpt lat="42.96251" lon="0.22016">
        <ele>1454</ele>
        <time>2021-01-11T12:11:59Z</time>
      </trkpt>
      <trkpt lat="42.96253" lon="0.22022">
        <ele>1454</ele>
        <time>2021-01-11T12:13:02Z</time>
      </trkpt>
      <trkpt lat="42.96254" lon="0.22028">
        <ele>1453</ele>
        <time>2021-01-11T12:13:07Z</time>
      </trkpt>
      <trkpt lat="42.96264" lon="0.22047">
        <ele>1449</ele>
        <time>2021-01-11T12:13:36Z</time>
      </trkpt>
      <trkpt lat="42.96265" lon="0.22049">
        <ele>1448</ele>
        <time>2021-01-11T12:13:39Z</time>
      </trkpt>
      <trkpt lat="42.96268" lon="0.22048">
        <ele>1448</ele>
        <time>2021-01-11T12:13:43Z</time>
      </trkpt>
      <trkpt lat="42.96271" lon="0.22049">
        <ele>1447</ele>
        <time>2021-01-11T12:13:48Z</time>
      </trkpt>
      <trkpt lat="42.96273" lon="0.22053">
        <ele>1446</ele>
        <time>2021-01-11T12:13:54Z</time>
      </trkpt>
      <trkpt lat="42.96282" lon="0.22062">
        <ele>1442</ele>
        <time>2021-01-11T12:14:17Z</time>
      </trkpt>
      <trkpt lat="42.96285" lon="0.22065">
        <ele>1440</ele>
        <time>2021-01-11T12:14:23Z</time>
      </trkpt>
      <trkpt lat="42.96287" lon="0.22065">
        <ele>1440</ele>
        <time>2021-01-11T12:14:26Z</time>
      </trkpt>
      <trkpt lat="42.96288" lon="0.2207">
        <ele>1439</ele>
        <time>2021-01-11T12:15:41Z</time>
      </trkpt>
      <trkpt lat="42.96289" lon="0.22076">
        <ele>1439</ele>
        <time>2021-01-11T12:15:45Z</time>
      </trkpt>
      <trkpt lat="42.9629" lon="0.2208">
        <ele>1438</ele>
        <time>2021-01-11T12:15:49Z</time>
      </trkpt>
      <trkpt lat="42.96292" lon="0.22084">
        <ele>1438</ele>
        <time>2021-01-11T12:15:54Z</time>
      </trkpt>
      <trkpt lat="42.96297" lon="0.22095">
        <ele>1436</ele>
        <time>2021-01-11T12:16:17Z</time>
      </trkpt>
      <trkpt lat="42.96298" lon="0.22096">
        <ele>1435</ele>
        <time>2021-01-11T12:16:20Z</time>
      </trkpt>
      <trkpt lat="42.963" lon="0.22098">
        <ele>1435</ele>
        <time>2021-01-11T12:16:23Z</time>
      </trkpt>
      <trkpt lat="42.963" lon="0.221">
        <ele>1434</ele>
        <time>2021-01-11T12:16:27Z</time>
      </trkpt>
      <trkpt lat="42.96301" lon="0.22106">
        <ele>1432</ele>
        <time>2021-01-11T12:17:23Z</time>
      </trkpt>
      <trkpt lat="42.96301" lon="0.22117">
        <ele>1432</ele>
        <time>2021-01-11T12:17:29Z</time>
      </trkpt>
      <trkpt lat="42.96315" lon="0.22135">
        <ele>1429</ele>
        <time>2021-01-11T12:17:56Z</time>
      </trkpt>
      <trkpt lat="42.96322" lon="0.2215">
        <ele>1427</ele>
        <time>2021-01-11T12:18:14Z</time>
      </trkpt>
      <trkpt lat="42.96323" lon="0.22163">
        <ele>1428</ele>
        <time>2021-01-11T12:19:03Z</time>
      </trkpt>
      <trkpt lat="42.96323" lon="0.22166">
        <ele>1428</ele>
        <time>2021-01-11T12:19:06Z</time>
      </trkpt>
      <trkpt lat="42.96324" lon="0.22169">
        <ele>1428</ele>
        <time>2021-01-11T12:19:09Z</time>
      </trkpt>
      <trkpt lat="42.96325" lon="0.22181">
        <ele>1428</ele>
        <time>2021-01-11T12:19:20Z</time>
      </trkpt>
      <trkpt lat="42.96326" lon="0.22185">
        <ele>1428</ele>
        <time>2021-01-11T12:19:24Z</time>
      </trkpt>
      <trkpt lat="42.96327" lon="0.2219">
        <ele>1427</ele>
        <time>2021-01-11T12:19:28Z</time>
      </trkpt>
      <trkpt lat="42.9633" lon="0.22193">
        <ele>1427</ele>
        <time>2021-01-11T12:19:32Z</time>
      </trkpt>
      <trkpt lat="42.96331" lon="0.22194">
        <ele>1426</ele>
        <time>2021-01-11T12:19:50Z</time>
      </trkpt>
      <trkpt lat="42.96338" lon="0.22202">
        <ele>1424</ele>
        <time>2021-01-11T12:20:00Z</time>
      </trkpt>
      <trkpt lat="42.96339" lon="0.22205">
        <ele>1424</ele>
        <time>2021-01-11T12:20:04Z</time>
      </trkpt>
      <trkpt lat="42.96339" lon="0.2221">
        <ele>1423</ele>
        <time>2021-01-11T12:20:11Z</time>
      </trkpt>
      <trkpt lat="42.96341" lon="0.22209">
        <ele>1423</ele>
        <time>2021-01-11T12:20:19Z</time>
      </trkpt>
      <trkpt lat="42.96342" lon="0.22209">
        <ele>1423</ele>
        <time>2021-01-11T12:20:36Z</time>
      </trkpt>
      <trkpt lat="42.9635" lon="0.22217">
        <ele>1421</ele>
        <time>2021-01-11T12:20:51Z</time>
      </trkpt>
      <trkpt lat="42.96352" lon="0.22224">
        <ele>1420</ele>
        <time>2021-01-11T12:20:58Z</time>
      </trkpt>
      <trkpt lat="42.96355" lon="0.22231">
        <ele>1419</ele>
        <time>2021-01-11T12:21:06Z</time>
      </trkpt>
      <trkpt lat="42.96358" lon="0.22241">
        <ele>1419</ele>
        <time>2021-01-11T12:21:16Z</time>
      </trkpt>
      <trkpt lat="42.96359" lon="0.2225">
        <ele>1419</ele>
        <time>2021-01-11T12:21:25Z</time>
      </trkpt>
      <trkpt lat="42.9636" lon="0.22253">
        <ele>1419</ele>
        <time>2021-01-11T12:21:28Z</time>
      </trkpt>
      <trkpt lat="42.96362" lon="0.22257">
        <ele>1419</ele>
        <time>2021-01-11T12:21:33Z</time>
      </trkpt>
      <trkpt lat="42.96373" lon="0.22259">
        <ele>1417</ele>
        <time>2021-01-11T12:21:53Z</time>
      </trkpt>
      <trkpt lat="42.96386" lon="0.22256">
        <ele>1414</ele>
        <time>2021-01-11T12:22:08Z</time>
      </trkpt>
      <trkpt lat="42.9639" lon="0.22262">
        <ele>1412</ele>
        <time>2021-01-11T12:22:15Z</time>
      </trkpt>
      <trkpt lat="42.96396" lon="0.22262">
        <ele>1411</ele>
        <time>2021-01-11T12:22:22Z</time>
      </trkpt>
      <trkpt lat="42.96408" lon="0.22269">
        <ele>1410</ele>
        <time>2021-01-11T12:23:42Z</time>
      </trkpt>
      <trkpt lat="42.96411" lon="0.22269">
        <ele>1409</ele>
        <time>2021-01-11T12:23:45Z</time>
      </trkpt>
      <trkpt lat="42.96414" lon="0.2227">
        <ele>1409</ele>
        <time>2021-01-11T12:23:58Z</time>
      </trkpt>
      <trkpt lat="42.96419" lon="0.22267">
        <ele>1408</ele>
        <time>2021-01-11T12:24:06Z</time>
      </trkpt>
      <trkpt lat="42.96422" lon="0.22267">
        <ele>1407</ele>
        <time>2021-01-11T12:24:11Z</time>
      </trkpt>
      <trkpt lat="42.96424" lon="0.22266">
        <ele>1407</ele>
        <time>2021-01-11T12:24:15Z</time>
      </trkpt>
      <trkpt lat="42.96425" lon="0.22263">
        <ele>1406</ele>
        <time>2021-01-11T12:24:19Z</time>
      </trkpt>
      <trkpt lat="42.96433" lon="0.22247">
        <ele>1401</ele>
        <time>2021-01-11T12:24:46Z</time>
      </trkpt>
      <trkpt lat="42.96433" lon="0.22242">
        <ele>1400</ele>
        <time>2021-01-11T12:24:55Z</time>
      </trkpt>
      <trkpt lat="42.96434" lon="0.22234">
        <ele>1398</ele>
        <time>2021-01-11T12:25:09Z</time>
      </trkpt>
      <trkpt lat="42.96434" lon="0.22231">
        <ele>1396</ele>
        <time>2021-01-11T12:25:13Z</time>
      </trkpt>
      <trkpt lat="42.96435" lon="0.22223">
        <ele>1394</ele>
        <time>2021-01-11T12:25:37Z</time>
      </trkpt>
      <trkpt lat="42.96439" lon="0.22213">
        <ele>1385</ele>
        <time>2021-01-11T12:25:57Z</time>
      </trkpt>
      <trkpt lat="42.96439" lon="0.22209">
        <ele>1384</ele>
        <time>2021-01-11T12:26:02Z</time>
      </trkpt>
      <trkpt lat="42.96439" lon="0.22205">
        <ele>1383</ele>
        <time>2021-01-11T12:26:06Z</time>
      </trkpt>
      <trkpt lat="42.96441" lon="0.22198">
        <ele>1382</ele>
        <time>2021-01-11T12:26:16Z</time>
      </trkpt>
      <trkpt lat="42.96442" lon="0.22195">
        <ele>1381</ele>
        <time>2021-01-11T12:26:20Z</time>
      </trkpt>
      <trkpt lat="42.96444" lon="0.22192">
        <ele>1380</ele>
        <time>2021-01-11T12:26:25Z</time>
      </trkpt>
      <trkpt lat="42.96456" lon="0.22203">
        <ele>1376</ele>
        <time>2021-01-11T12:26:48Z</time>
      </trkpt>
      <trkpt lat="42.9646" lon="0.22206">
        <ele>1376</ele>
        <time>2021-01-11T12:26:52Z</time>
      </trkpt>
      <trkpt lat="42.96463" lon="0.22208">
        <ele>1374</ele>
        <time>2021-01-11T12:27:00Z</time>
      </trkpt>
      <trkpt lat="42.96486" lon="0.22223">
        <ele>1367</ele>
        <time>2021-01-11T12:27:34Z</time>
      </trkpt>
      <trkpt lat="42.96495" lon="0.22227">
        <ele>1366</ele>
        <time>2021-01-11T12:27:46Z</time>
      </trkpt>
      <trkpt lat="42.9651" lon="0.22232">
        <ele>1361</ele>
        <time>2021-01-11T12:28:13Z</time>
      </trkpt>
      <trkpt lat="42.96514" lon="0.22234">
        <ele>1360</ele>
        <time>2021-01-11T12:28:17Z</time>
      </trkpt>
      <trkpt lat="42.96523" lon="0.22235">
        <ele>1360</ele>
        <time>2021-01-11T12:28:21Z</time>
      </trkpt>
      <trkpt lat="42.96534" lon="0.22236">
        <ele>1357</ele>
        <time>2021-01-11T12:28:41Z</time>
      </trkpt>
      <trkpt lat="42.96538" lon="0.22237">
        <ele>1357</ele>
        <time>2021-01-11T12:28:45Z</time>
      </trkpt>
      <trkpt lat="42.96541" lon="0.22237">
        <ele>1356</ele>
        <time>2021-01-11T12:28:49Z</time>
      </trkpt>
      <trkpt lat="42.96544" lon="0.22237">
        <ele>1356</ele>
        <time>2021-01-11T12:28:53Z</time>
      </trkpt>
      <trkpt lat="42.96546" lon="0.22238">
        <ele>1354</ele>
        <time>2021-01-11T12:28:57Z</time>
      </trkpt>
      <trkpt lat="42.96549" lon="0.22238">
        <ele>1354</ele>
        <time>2021-01-11T12:29:01Z</time>
      </trkpt>
      <trkpt lat="42.96552" lon="0.22234">
        <ele>1355</ele>
        <time>2021-01-11T12:31:32Z</time>
      </trkpt>
      <trkpt lat="42.96556" lon="0.22234">
        <ele>1358</ele>
        <time>2021-01-11T12:32:15Z</time>
      </trkpt>
      <trkpt lat="42.9656" lon="0.22234">
        <ele>1359</ele>
        <time>2021-01-11T12:32:27Z</time>
      </trkpt>
      <trkpt lat="42.96588" lon="0.22238">
        <ele>1352</ele>
        <time>2021-01-11T12:32:52Z</time>
      </trkpt>
      <trkpt lat="42.96594" lon="0.2224">
        <ele>1350</ele>
        <time>2021-01-11T12:32:59Z</time>
      </trkpt>
      <trkpt lat="42.96617" lon="0.22241">
        <ele>1344</ele>
        <time>2021-01-11T12:33:29Z</time>
      </trkpt>
      <trkpt lat="42.96628" lon="0.22238">
        <ele>1341</ele>
        <time>2021-01-11T12:33:41Z</time>
      </trkpt>
      <trkpt lat="42.96636" lon="0.2224">
        <ele>1339</ele>
        <time>2021-01-11T12:33:51Z</time>
      </trkpt>
      <trkpt lat="42.96647" lon="0.22249">
        <ele>1336</ele>
        <time>2021-01-11T12:34:12Z</time>
      </trkpt>
      <trkpt lat="42.96653" lon="0.22252">
        <ele>1333</ele>
        <time>2021-01-11T12:34:44Z</time>
      </trkpt>
      <trkpt lat="42.96656" lon="0.22254">
        <ele>1333</ele>
        <time>2021-01-11T12:34:47Z</time>
      </trkpt>
      <trkpt lat="42.96675" lon="0.22263">
        <ele>1327</ele>
        <time>2021-01-11T12:35:13Z</time>
      </trkpt>
      <trkpt lat="42.96677" lon="0.22264">
        <ele>1326</ele>
        <time>2021-01-11T12:35:17Z</time>
      </trkpt>
      <trkpt lat="42.96692" lon="0.2227">
        <ele>1323</ele>
        <time>2021-01-11T12:35:35Z</time>
      </trkpt>
      <trkpt lat="42.96695" lon="0.22272">
        <ele>1322</ele>
        <time>2021-01-11T12:35:44Z</time>
      </trkpt>
      <trkpt lat="42.96698" lon="0.22274">
        <ele>1319</ele>
        <time>2021-01-11T12:35:50Z</time>
      </trkpt>
      <trkpt lat="42.96707" lon="0.22275">
        <ele>1316</ele>
        <time>2021-01-11T12:36:02Z</time>
      </trkpt>
      <trkpt lat="42.9671" lon="0.22276">
        <ele>1316</ele>
        <time>2021-01-11T12:36:05Z</time>
      </trkpt>
      <trkpt lat="42.96713" lon="0.22277">
        <ele>1315</ele>
        <time>2021-01-11T12:36:13Z</time>
      </trkpt>
      <trkpt lat="42.9672" lon="0.22281">
        <ele>1313</ele>
        <time>2021-01-11T12:36:20Z</time>
      </trkpt>
      <trkpt lat="42.96721" lon="0.22285">
        <ele>1312</ele>
        <time>2021-01-11T12:36:25Z</time>
      </trkpt>
      <trkpt lat="42.96723" lon="0.22289">
        <ele>1310</ele>
        <time>2021-01-11T12:36:30Z</time>
      </trkpt>
      <trkpt lat="42.96738" lon="0.22293">
        <ele>1307</ele>
        <time>2021-01-11T12:36:47Z</time>
      </trkpt>
      <trkpt lat="42.96741" lon="0.22293">
        <ele>1307</ele>
        <time>2021-01-11T12:36:51Z</time>
      </trkpt>
      <trkpt lat="42.96744" lon="0.22292">
        <ele>1306</ele>
        <time>2021-01-11T12:36:57Z</time>
      </trkpt>
      <trkpt lat="42.9675" lon="0.22292">
        <ele>1304</ele>
        <time>2021-01-11T12:37:05Z</time>
      </trkpt>
      <trkpt lat="42.96757" lon="0.22296">
        <ele>1304</ele>
        <time>2021-01-11T12:37:13Z</time>
      </trkpt>
      <trkpt lat="42.96781" lon="0.22304">
        <ele>1299</ele>
        <time>2021-01-11T12:37:43Z</time>
      </trkpt>
      <trkpt lat="42.96803" lon="0.22315">
        <ele>1291</ele>
        <time>2021-01-11T12:38:14Z</time>
      </trkpt>
      <trkpt lat="42.96822" lon="0.22322">
        <ele>1288</ele>
        <time>2021-01-11T12:38:35Z</time>
      </trkpt>
      <trkpt lat="42.96825" lon="0.22322">
        <ele>1288</ele>
        <time>2021-01-11T12:38:38Z</time>
      </trkpt>
      <trkpt lat="42.96829" lon="0.22316">
        <ele>1288</ele>
        <time>2021-01-11T12:38:55Z</time>
      </trkpt>
      <trkpt lat="42.96832" lon="0.22316">
        <ele>1287</ele>
        <time>2021-01-11T12:39:08Z</time>
      </trkpt>
      <trkpt lat="42.96854" lon="0.22319">
        <ele>1281</ele>
        <time>2021-01-11T12:39:54Z</time>
      </trkpt>
      <trkpt lat="42.96882" lon="0.22321">
        <ele>1276</ele>
        <time>2021-01-11T12:40:27Z</time>
      </trkpt>
      <trkpt lat="42.96893" lon="0.22321">
        <ele>1272</ele>
        <time>2021-01-11T12:40:41Z</time>
      </trkpt>
      <trkpt lat="42.96896" lon="0.22323">
        <ele>1270</ele>
        <time>2021-01-11T12:40:46Z</time>
      </trkpt>
      <trkpt lat="42.969" lon="0.22326">
        <ele>1269</ele>
        <time>2021-01-11T12:40:52Z</time>
      </trkpt>
      <trkpt lat="42.96906" lon="0.22328">
        <ele>1267</ele>
        <time>2021-01-11T12:41:08Z</time>
      </trkpt>
      <trkpt lat="42.96912" lon="0.22331">
        <ele>1266</ele>
        <time>2021-01-11T12:41:16Z</time>
      </trkpt>
      <trkpt lat="42.96914" lon="0.22332">
        <ele>1265</ele>
        <time>2021-01-11T12:41:23Z</time>
      </trkpt>
      <trkpt lat="42.96918" lon="0.22335">
        <ele>1264</ele>
        <time>2021-01-11T12:41:33Z</time>
      </trkpt>
      <trkpt lat="42.96922" lon="0.22336">
        <ele>1263</ele>
        <time>2021-01-11T12:41:42Z</time>
      </trkpt>
      <trkpt lat="42.96924" lon="0.22337">
        <ele>1263</ele>
        <time>2021-01-11T12:41:57Z</time>
      </trkpt>
      <trkpt lat="42.96937" lon="0.22343">
        <ele>1260</ele>
        <time>2021-01-11T12:42:56Z</time>
      </trkpt>
      <trkpt lat="42.96956" lon="0.22345">
        <ele>1255</ele>
        <time>2021-01-11T12:44:16Z</time>
      </trkpt>
      <trkpt lat="42.96964" lon="0.22345">
        <ele>1251</ele>
        <time>2021-01-11T12:44:56Z</time>
      </trkpt>
      <trkpt lat="42.96977" lon="0.22347">
        <ele>1248</ele>
        <time>2021-01-11T12:45:28Z</time>
      </trkpt>
      <trkpt lat="42.9699" lon="0.22347">
        <ele>1246</ele>
        <time>2021-01-11T12:45:42Z</time>
      </trkpt>
      <trkpt lat="42.96992" lon="0.22346">
        <ele>1246</ele>
        <time>2021-01-11T12:45:45Z</time>
      </trkpt>
      <trkpt lat="42.97006" lon="0.22346">
        <ele>1244</ele>
        <time>2021-01-11T12:46:01Z</time>
      </trkpt>
      <trkpt lat="42.97008" lon="0.22345">
        <ele>1244</ele>
        <time>2021-01-11T12:46:04Z</time>
      </trkpt>
      <trkpt lat="42.9703" lon="0.2233">
        <ele>1239</ele>
        <time>2021-01-11T12:46:35Z</time>
      </trkpt>
      <trkpt lat="42.97032" lon="0.22329">
        <ele>1238</ele>
        <time>2021-01-11T12:46:38Z</time>
      </trkpt>
      <trkpt lat="42.97057" lon="0.22327">
        <ele>1232</ele>
        <time>2021-01-11T12:47:11Z</time>
      </trkpt>
      <trkpt lat="42.97077" lon="0.22317">
        <ele>1226</ele>
        <time>2021-01-11T12:47:43Z</time>
      </trkpt>
      <trkpt lat="42.97092" lon="0.22311">
        <ele>1222</ele>
        <time>2021-01-11T12:48:08Z</time>
      </trkpt>
      <trkpt lat="42.97105" lon="0.22314">
        <ele>1218</ele>
        <time>2021-01-11T12:48:28Z</time>
      </trkpt>
      <trkpt lat="42.97105" lon="0.22312">
        <ele>1217</ele>
        <time>2021-01-11T12:49:02Z</time>
      </trkpt>
      <trkpt lat="42.97113" lon="0.22314">
        <ele>1217</ele>
        <time>2021-01-11T12:49:29Z</time>
      </trkpt>
      <trkpt lat="42.97129" lon="0.22327">
        <ele>1213</ele>
        <time>2021-01-11T12:50:03Z</time>
      </trkpt>
      <trkpt lat="42.97137" lon="0.22339">
        <ele>1211</ele>
        <time>2021-01-11T12:50:12Z</time>
      </trkpt>
      <trkpt lat="42.9715" lon="0.22356">
        <ele>1205</ele>
        <time>2021-01-11T12:50:39Z</time>
      </trkpt>
      <trkpt lat="42.97154" lon="0.22361">
        <ele>1205</ele>
        <time>2021-01-11T12:50:42Z</time>
      </trkpt>
      <trkpt lat="42.9716" lon="0.22363">
        <ele>1202</ele>
        <time>2021-01-11T12:50:48Z</time>
      </trkpt>
      <trkpt lat="42.97169" lon="0.22359">
        <ele>1199</ele>
        <time>2021-01-11T12:51:00Z</time>
      </trkpt>
      <trkpt lat="42.97192" lon="0.22352">
        <ele>1188</ele>
        <time>2021-01-11T12:51:36Z</time>
      </trkpt>
      <trkpt lat="42.97205" lon="0.22353">
        <ele>1184</ele>
        <time>2021-01-11T12:51:57Z</time>
      </trkpt>
      <trkpt lat="42.97207" lon="0.22351">
        <ele>1183</ele>
        <time>2021-01-11T12:52:00Z</time>
      </trkpt>
      <trkpt lat="42.97209" lon="0.22348">
        <ele>1182</ele>
        <time>2021-01-11T12:52:04Z</time>
      </trkpt>
      <trkpt lat="42.97213" lon="0.22335">
        <ele>1178</ele>
        <time>2021-01-11T12:52:19Z</time>
      </trkpt>
      <trkpt lat="42.97214" lon="0.22324">
        <ele>1176</ele>
        <time>2021-01-11T12:52:29Z</time>
      </trkpt>
      <trkpt lat="42.97214" lon="0.2232">
        <ele>1176</ele>
        <time>2021-01-11T12:52:33Z</time>
      </trkpt>
      <trkpt lat="42.97214" lon="0.22316">
        <ele>1175</ele>
        <time>2021-01-11T12:52:44Z</time>
      </trkpt>
      <trkpt lat="42.97214" lon="0.22312">
        <ele>1174</ele>
        <time>2021-01-11T12:52:47Z</time>
      </trkpt>
      <trkpt lat="42.97212" lon="0.22308">
        <ele>1173</ele>
        <time>2021-01-11T12:52:51Z</time>
      </trkpt>
      <trkpt lat="42.97209" lon="0.22299">
        <ele>1173</ele>
        <time>2021-01-11T12:52:58Z</time>
      </trkpt>
      <trkpt lat="42.9721" lon="0.22292">
        <ele>1170</ele>
        <time>2021-01-11T12:53:05Z</time>
      </trkpt>
      <trkpt lat="42.9721" lon="0.22289">
        <ele>1170</ele>
        <time>2021-01-11T12:53:08Z</time>
      </trkpt>
      <trkpt lat="42.97212" lon="0.22286">
        <ele>1169</ele>
        <time>2021-01-11T12:53:11Z</time>
      </trkpt>
      <trkpt lat="42.97215" lon="0.22289">
        <ele>1168</ele>
        <time>2021-01-11T12:53:14Z</time>
      </trkpt>
      <trkpt lat="42.97218" lon="0.22292">
        <ele>1167</ele>
        <time>2021-01-11T12:53:17Z</time>
      </trkpt>
      <trkpt lat="42.97234" lon="0.22299">
        <ele>1162</ele>
        <time>2021-01-11T12:53:39Z</time>
      </trkpt>
      <trkpt lat="42.97241" lon="0.22299">
        <ele>1160</ele>
        <time>2021-01-11T12:53:51Z</time>
      </trkpt>
      <trkpt lat="42.97243" lon="0.22301">
        <ele>1158</ele>
        <time>2021-01-11T12:53:55Z</time>
      </trkpt>
      <trkpt lat="42.97245" lon="0.22303">
        <ele>1158</ele>
        <time>2021-01-11T12:53:59Z</time>
      </trkpt>
      <trkpt lat="42.97247" lon="0.22304">
        <ele>1156</ele>
        <time>2021-01-11T12:54:04Z</time>
      </trkpt>
      <trkpt lat="42.97263" lon="0.22309">
        <ele>1148</ele>
        <time>2021-01-11T12:54:34Z</time>
      </trkpt>
      <trkpt lat="42.97281" lon="0.22313">
        <ele>1142</ele>
        <time>2021-01-11T12:55:02Z</time>
      </trkpt>
      <trkpt lat="42.97303" lon="0.22322">
        <ele>1135</ele>
        <time>2021-01-11T12:55:33Z</time>
      </trkpt>
      <trkpt lat="42.97307" lon="0.22323">
        <ele>1133</ele>
        <time>2021-01-11T12:55:40Z</time>
      </trkpt>
      <trkpt lat="42.97309" lon="0.22323">
        <ele>1133</ele>
        <time>2021-01-11T12:55:52Z</time>
      </trkpt>
      <trkpt lat="42.97315" lon="0.22325">
        <ele>1131</ele>
        <time>2021-01-11T12:56:11Z</time>
      </trkpt>
      <trkpt lat="42.97324" lon="0.22327">
        <ele>1129</ele>
        <time>2021-01-11T12:56:24Z</time>
      </trkpt>
      <trkpt lat="42.97335" lon="0.22333">
        <ele>1127</ele>
        <time>2021-01-11T12:56:37Z</time>
      </trkpt>
      <trkpt lat="42.97337" lon="0.22333">
        <ele>1126</ele>
        <time>2021-01-11T12:56:39Z</time>
      </trkpt>
      <trkpt lat="42.97343" lon="0.22334">
        <ele>1125</ele>
        <time>2021-01-11T12:56:46Z</time>
      </trkpt>
      <trkpt lat="42.97355" lon="0.22335">
        <ele>1121</ele>
        <time>2021-01-11T12:57:01Z</time>
      </trkpt>
      <trkpt lat="42.97372" lon="0.22343">
        <ele>1117</ele>
        <time>2021-01-11T12:57:23Z</time>
      </trkpt>
      <trkpt lat="42.97378" lon="0.22344">
        <ele>1115</ele>
        <time>2021-01-11T12:57:30Z</time>
      </trkpt>
      <trkpt lat="42.97384" lon="0.22347">
        <ele>1115</ele>
        <time>2021-01-11T12:57:37Z</time>
      </trkpt>
      <trkpt lat="42.97386" lon="0.22349">
        <ele>1115</ele>
        <time>2021-01-11T12:57:41Z</time>
      </trkpt>
      <trkpt lat="42.97389" lon="0.22349">
        <ele>1113</ele>
        <time>2021-01-11T12:57:46Z</time>
      </trkpt>
      <trkpt lat="42.97392" lon="0.22351">
        <ele>1113</ele>
        <time>2021-01-11T12:57:50Z</time>
      </trkpt>
      <trkpt lat="42.97403" lon="0.22354">
        <ele>1109</ele>
        <time>2021-01-11T12:58:07Z</time>
      </trkpt>
      <trkpt lat="42.97406" lon="0.22357">
        <ele>1107</ele>
        <time>2021-01-11T12:58:20Z</time>
      </trkpt>
      <trkpt lat="42.9741" lon="0.22358">
        <ele>1106</ele>
        <time>2021-01-11T12:58:29Z</time>
      </trkpt>
      <trkpt lat="42.97418" lon="0.22359">
        <ele>1101</ele>
        <time>2021-01-11T12:58:41Z</time>
      </trkpt>
      <trkpt lat="42.97427" lon="0.2236">
        <ele>1095</ele>
        <time>2021-01-11T12:58:57Z</time>
      </trkpt>
      <trkpt lat="42.9743" lon="0.22361">
        <ele>1094</ele>
        <time>2021-01-11T12:59:01Z</time>
      </trkpt>
      <trkpt lat="42.97433" lon="0.22358">
        <ele>1093</ele>
        <time>2021-01-11T12:59:05Z</time>
      </trkpt>
      <trkpt lat="42.97459" lon="0.22356">
        <ele>1088</ele>
        <time>2021-01-11T12:59:35Z</time>
      </trkpt>
      <trkpt lat="42.97477" lon="0.22353">
        <ele>1080</ele>
        <time>2021-01-11T13:00:05Z</time>
      </trkpt>
      <trkpt lat="42.97482" lon="0.22355">
        <ele>1077</ele>
        <time>2021-01-11T13:00:16Z</time>
      </trkpt>
      <trkpt lat="42.97484" lon="0.22353">
        <ele>1076</ele>
        <time>2021-01-11T13:00:47Z</time>
      </trkpt>
      <trkpt lat="42.9749" lon="0.22353">
        <ele>1075</ele>
        <time>2021-01-11T13:01:05Z</time>
      </trkpt>
      <trkpt lat="42.97494" lon="0.22353">
        <ele>1075</ele>
        <time>2021-01-11T13:01:10Z</time>
      </trkpt>
      <trkpt lat="42.97506" lon="0.22352">
        <ele>1072</ele>
        <time>2021-01-11T13:01:27Z</time>
      </trkpt>
      <trkpt lat="42.9751" lon="0.22352">
        <ele>1071</ele>
        <time>2021-01-11T13:01:34Z</time>
      </trkpt>
      <trkpt lat="42.97513" lon="0.22351">
        <ele>1070</ele>
        <time>2021-01-11T13:01:43Z</time>
      </trkpt>
      <trkpt lat="42.97517" lon="0.22352">
        <ele>1069</ele>
        <time>2021-01-11T13:02:10Z</time>
      </trkpt>
      <trkpt lat="42.9752" lon="0.22352">
        <ele>1067</ele>
        <time>2021-01-11T13:02:16Z</time>
      </trkpt>
      <trkpt lat="42.97523" lon="0.22352">
        <ele>1066</ele>
        <time>2021-01-11T13:02:21Z</time>
      </trkpt>
      <trkpt lat="42.97524" lon="0.22352">
        <ele>1064</ele>
        <time>2021-01-11T13:02:24Z</time>
      </trkpt>
      <trkpt lat="42.97537" lon="0.22353">
        <ele>1058</ele>
        <time>2021-01-11T13:02:57Z</time>
      </trkpt>
      <trkpt lat="42.97546" lon="0.22355">
        <ele>1054</ele>
        <time>2021-01-11T13:03:11Z</time>
      </trkpt>
      <trkpt lat="42.97553" lon="0.22352">
        <ele>1053</ele>
        <time>2021-01-11T13:03:20Z</time>
      </trkpt>
      <trkpt lat="42.97556" lon="0.22351">
        <ele>1052</ele>
        <time>2021-01-11T13:03:24Z</time>
      </trkpt>
      <trkpt lat="42.97559" lon="0.2235">
        <ele>1051</ele>
        <time>2021-01-11T13:03:29Z</time>
      </trkpt>
      <trkpt lat="42.97562" lon="0.2235">
        <ele>1050</ele>
        <time>2021-01-11T13:03:35Z</time>
      </trkpt>
      <trkpt lat="42.97573" lon="0.22356">
        <ele>1046</ele>
        <time>2021-01-11T13:03:54Z</time>
      </trkpt>
      <trkpt lat="42.97583" lon="0.22353">
        <ele>1043</ele>
        <time>2021-01-11T13:04:07Z</time>
      </trkpt>
      <trkpt lat="42.97592" lon="0.22358">
        <ele>1040</ele>
        <time>2021-01-11T13:04:40Z</time>
      </trkpt>
      <trkpt lat="42.97601" lon="0.22361">
        <ele>1038</ele>
        <time>2021-01-11T13:04:53Z</time>
      </trkpt>
      <trkpt lat="42.97603" lon="0.22365">
        <ele>1035</ele>
        <time>2021-01-11T13:05:02Z</time>
      </trkpt>
      <trkpt lat="42.97607" lon="0.22367">
        <ele>1033</ele>
        <time>2021-01-11T13:05:10Z</time>
      </trkpt>
      <trkpt lat="42.97611" lon="0.22369">
        <ele>1031</ele>
        <time>2021-01-11T13:05:16Z</time>
      </trkpt>
      <trkpt lat="42.97615" lon="0.2237">
        <ele>1031</ele>
        <time>2021-01-11T13:05:23Z</time>
      </trkpt>
      <trkpt lat="42.9762" lon="0.22373">
        <ele>1028</ele>
        <time>2021-01-11T13:05:31Z</time>
      </trkpt>
      <trkpt lat="42.97624" lon="0.22374">
        <ele>1028</ele>
        <time>2021-01-11T13:05:35Z</time>
      </trkpt>
      <trkpt lat="42.97634" lon="0.2238">
        <ele>1027</ele>
        <time>2021-01-11T13:05:50Z</time>
      </trkpt>
      <trkpt lat="42.97638" lon="0.22379">
        <ele>1026</ele>
        <time>2021-01-11T13:05:55Z</time>
      </trkpt>
      <trkpt lat="42.9764" lon="0.22375">
        <ele>1024</ele>
        <time>2021-01-11T13:06:17Z</time>
      </trkpt>
      <trkpt lat="42.97642" lon="0.22381">
        <ele>1023</ele>
        <time>2021-01-11T13:06:27Z</time>
      </trkpt>
      <trkpt lat="42.97646" lon="0.22383">
        <ele>1020</ele>
        <time>2021-01-11T13:06:33Z</time>
      </trkpt>
      <trkpt lat="42.97653" lon="0.22386">
        <ele>1019</ele>
        <time>2021-01-11T13:06:41Z</time>
      </trkpt>
      <trkpt lat="42.97657" lon="0.22388">
        <ele>1017</ele>
        <time>2021-01-11T13:06:51Z</time>
      </trkpt>
      <trkpt lat="42.97661" lon="0.22387">
        <ele>1015</ele>
        <time>2021-01-11T13:06:57Z</time>
      </trkpt>
      <trkpt lat="42.97663" lon="0.22391">
        <ele>1012</ele>
        <time>2021-01-11T13:07:06Z</time>
      </trkpt>
      <trkpt lat="42.97684" lon="0.22393">
        <ele>1006</ele>
        <time>2021-01-11T13:07:38Z</time>
      </trkpt>
      <trkpt lat="42.97687" lon="0.22396">
        <ele>1006</ele>
        <time>2021-01-11T13:07:42Z</time>
      </trkpt>
      <trkpt lat="42.9769" lon="0.22397">
        <ele>1005</ele>
        <time>2021-01-11T13:07:49Z</time>
      </trkpt>
      <trkpt lat="42.97704" lon="0.22402">
        <ele>1002</ele>
        <time>2021-01-11T13:08:09Z</time>
      </trkpt>
      <trkpt lat="42.97706" lon="0.22398">
        <ele>1001</ele>
        <time>2021-01-11T13:08:13Z</time>
      </trkpt>
      <trkpt lat="42.9771" lon="0.224">
        <ele>999</ele>
        <time>2021-01-11T13:08:20Z</time>
      </trkpt>
      <trkpt lat="42.97712" lon="0.22405">
        <ele>999</ele>
        <time>2021-01-11T13:08:23Z</time>
      </trkpt>
      <trkpt lat="42.97715" lon="0.22407">
        <ele>998</ele>
        <time>2021-01-11T13:08:32Z</time>
      </trkpt>
      <trkpt lat="42.97716" lon="0.2241">
        <ele>995</ele>
        <time>2021-01-11T13:08:49Z</time>
      </trkpt>
      <trkpt lat="42.97718" lon="0.22415">
        <ele>995</ele>
        <time>2021-01-11T13:08:59Z</time>
      </trkpt>
      <trkpt lat="42.9772" lon="0.2242">
        <ele>994</ele>
        <time>2021-01-11T13:09:15Z</time>
      </trkpt>
      <trkpt lat="42.97727" lon="0.22433">
        <ele>991</ele>
        <time>2021-01-11T13:09:34Z</time>
      </trkpt>
      <trkpt lat="42.97731" lon="0.22435">
        <ele>990</ele>
        <time>2021-01-11T13:09:39Z</time>
      </trkpt>
      <trkpt lat="42.97735" lon="0.22437">
        <ele>989</ele>
        <time>2021-01-11T13:09:45Z</time>
      </trkpt>
      <trkpt lat="42.97738" lon="0.22437">
        <ele>987</ele>
        <time>2021-01-11T13:09:51Z</time>
      </trkpt>
      <trkpt lat="42.97744" lon="0.22438">
        <ele>985</ele>
        <time>2021-01-11T13:10:22Z</time>
      </trkpt>
      <trkpt lat="42.97748" lon="0.22437">
        <ele>985</ele>
        <time>2021-01-11T13:11:48Z</time>
      </trkpt>
      <trkpt lat="42.97751" lon="0.22442">
        <ele>985</ele>
        <time>2021-01-11T13:12:02Z</time>
      </trkpt>
      <trkpt lat="42.97761" lon="0.2245">
        <ele>983</ele>
        <time>2021-01-11T13:12:21Z</time>
      </trkpt>
      <trkpt lat="42.97767" lon="0.2245">
        <ele>981</ele>
        <time>2021-01-11T13:12:49Z</time>
      </trkpt>
      <trkpt lat="42.97772" lon="0.22444">
        <ele>978</ele>
        <time>2021-01-11T13:13:22Z</time>
      </trkpt>
      <trkpt lat="42.97776" lon="0.22443">
        <ele>977</ele>
        <time>2021-01-11T13:13:50Z</time>
      </trkpt>
      <trkpt lat="42.97779" lon="0.22447">
        <ele>978</ele>
        <time>2021-01-11T13:14:59Z</time>
      </trkpt>
      <trkpt lat="42.97787" lon="0.22453">
        <ele>980</ele>
        <time>2021-01-11T13:15:30Z</time>
      </trkpt>
      <trkpt lat="42.97796" lon="0.22462">
        <ele>981</ele>
        <time>2021-01-11T13:15:48Z</time>
      </trkpt>
      <trkpt lat="42.97811" lon="0.22478">
        <ele>978</ele>
        <time>2021-01-11T13:15:59Z</time>
      </trkpt>
      <trkpt lat="42.97816" lon="0.22483">
        <ele>975</ele>
        <time>2021-01-11T13:16:02Z</time>
      </trkpt>
      <trkpt lat="42.9782" lon="0.22486">
        <ele>974</ele>
        <time>2021-01-11T13:16:07Z</time>
      </trkpt>
      <trkpt lat="42.97825" lon="0.22486">
        <ele>970</ele>
        <time>2021-01-11T13:16:11Z</time>
      </trkpt>
      <trkpt lat="42.9783" lon="0.22489">
        <ele>969</ele>
        <time>2021-01-11T13:16:14Z</time>
      </trkpt>
      <trkpt lat="42.97846" lon="0.22509">
        <ele>966</ele>
        <time>2021-01-11T13:16:30Z</time>
      </trkpt>
      <trkpt lat="42.97849" lon="0.22511">
        <ele>966</ele>
        <time>2021-01-11T13:16:33Z</time>
      </trkpt>
      <trkpt lat="42.97851" lon="0.22508">
        <ele>966</ele>
        <time>2021-01-11T13:16:43Z</time>
      </trkpt>
      <trkpt lat="42.97854" lon="0.22507">
        <ele>964</ele>
        <time>2021-01-11T13:17:16Z</time>
      </trkpt>
      <trkpt lat="42.97851" lon="0.22504">
        <ele>963</ele>
        <time>2021-01-11T13:17:40Z</time>
      </trkpt>
      <trkpt lat="42.97847" lon="0.22506">
        <ele>963</ele>
        <time>2021-01-11T13:17:44Z</time>
      </trkpt>
      <trkpt lat="42.97848" lon="0.22509">
        <ele>963</ele>
        <time>2021-01-11T13:18:03Z</time>
      </trkpt>
      <trkpt lat="42.97852" lon="0.22505">
        <ele>963</ele>
        <time>2021-01-11T13:18:57Z</time>
      </trkpt>
      <trkpt lat="42.97857" lon="0.22503">
        <ele>963</ele>
        <time>2021-01-11T13:19:12Z</time>
      </trkpt>
      <trkpt lat="42.97862" lon="0.22501">
        <ele>957</ele>
        <time>2021-01-11T13:19:49Z</time>
      </trkpt>
      <trkpt lat="42.97868" lon="0.22498">
        <ele>957</ele>
        <time>2021-01-11T13:20:19Z</time>
      </trkpt>
      <trkpt lat="42.97879" lon="0.22496">
        <ele>955</ele>
        <time>2021-01-11T13:21:01Z</time>
      </trkpt>
      <trkpt lat="42.97909" lon="0.22489">
        <ele>953</ele>
        <time>2021-01-11T13:21:17Z</time>
      </trkpt>
      <trkpt lat="42.97938" lon="0.22481">
        <ele>951</ele>
        <time>2021-01-11T13:21:36Z</time>
      </trkpt>
      <trkpt lat="42.97976" lon="0.22486">
        <ele>951</ele>
        <time>2021-01-11T13:22:05Z</time>
      </trkpt>
      <trkpt lat="42.98002" lon="0.22483">
        <ele>951</ele>
        <time>2021-01-11T13:22:19Z</time>
      </trkpt>
      <trkpt lat="42.98013" lon="0.2248">
        <ele>950</ele>
        <time>2021-01-11T13:22:26Z</time>
      </trkpt>
      <trkpt lat="42.98025" lon="0.22477">
        <ele>951</ele>
        <time>2021-01-11T13:22:35Z</time>
      </trkpt>
      <trkpt lat="42.98029" lon="0.22478">
        <ele>951</ele>
        <time>2021-01-11T13:22:50Z</time>
      </trkpt>
      <trkpt lat="42.98028" lon="0.22474">
        <ele>950</ele>
        <time>2021-01-11T13:23:18Z</time>
      </trkpt>
      <trkpt lat="42.98031" lon="0.22472">
        <ele>950</ele>
        <time>2021-01-11T13:23:33Z</time>
      </trkpt>
      <trkpt lat="42.98034" lon="0.2247">
        <ele>950</ele>
        <time>2021-01-11T13:24:01Z</time>
      </trkpt>
      <trkpt lat="42.98038" lon="0.2247">
        <ele>950</ele>
        <time>2021-01-11T13:24:05Z</time>
      </trkpt>
      <trkpt lat="42.98053" lon="0.22466">
        <ele>950</ele>
        <time>2021-01-11T13:24:17Z</time>
      </trkpt>
      <trkpt lat="42.98075" lon="0.22465">
        <ele>949</ele>
        <time>2021-01-11T13:24:37Z</time>
      </trkpt>
      <trkpt lat="42.98081" lon="0.22463">
        <ele>949</ele>
        <time>2021-01-11T13:24:41Z</time>
      </trkpt>
      <trkpt lat="42.98114" lon="0.22455">
        <ele>945</ele>
        <time>2021-01-11T13:25:12Z</time>
      </trkpt>
      <trkpt lat="42.98118" lon="0.22454">
        <ele>944</ele>
        <time>2021-01-11T13:25:16Z</time>
      </trkpt>
      <trkpt lat="42.9813" lon="0.22456">
        <ele>942</ele>
        <time>2021-01-11T13:25:29Z</time>
      </trkpt>
      <trkpt lat="42.98136" lon="0.22459">
        <ele>941</ele>
        <time>2021-01-11T13:25:37Z</time>
      </trkpt>
      <trkpt lat="42.98141" lon="0.2246">
        <ele>942</ele>
        <time>2021-01-11T13:25:40Z</time>
      </trkpt>
      <trkpt lat="42.98147" lon="0.22459">
        <ele>941</ele>
        <time>2021-01-11T13:25:43Z</time>
      </trkpt>
      <trkpt lat="42.98153" lon="0.22458">
        <ele>944</ele>
        <time>2021-01-11T13:25:47Z</time>
      </trkpt>
      <trkpt lat="42.98157" lon="0.22457">
        <ele>944</ele>
        <time>2021-01-11T13:25:49Z</time>
      </trkpt>
      <trkpt lat="42.98162" lon="0.2245">
        <ele>943</ele>
        <time>2021-01-11T13:26:09Z</time>
      </trkpt>
      <trkpt lat="42.98174" lon="0.22452">
        <ele>940</ele>
        <time>2021-01-11T13:26:59Z</time>
      </trkpt>
      <trkpt lat="42.98185" lon="0.22452">
        <ele>939</ele>
        <time>2021-01-11T13:27:13Z</time>
      </trkpt>
      <trkpt lat="42.9819" lon="0.22453">
        <ele>938</ele>
        <time>2021-01-11T13:27:17Z</time>
      </trkpt>
      <trkpt lat="42.98211" lon="0.22447">
        <ele>937</ele>
        <time>2021-01-11T13:27:48Z</time>
      </trkpt>
      <trkpt lat="42.98215" lon="0.22445">
        <ele>936</ele>
        <time>2021-01-11T13:28:01Z</time>
      </trkpt>
      <trkpt lat="42.98218" lon="0.22445">
        <ele>936</ele>
        <time>2021-01-11T13:28:04Z</time>
      </trkpt>
      <trkpt lat="42.98221" lon="0.22444">
        <ele>936</ele>
        <time>2021-01-11T13:28:12Z</time>
      </trkpt>
      <trkpt lat="42.98224" lon="0.22443">
        <ele>936</ele>
        <time>2021-01-11T13:28:15Z</time>
      </trkpt>
      <trkpt lat="42.98228" lon="0.22445">
        <ele>935</ele>
        <time>2021-01-11T13:28:21Z</time>
      </trkpt>
      <trkpt lat="42.98238" lon="0.22444">
        <ele>932</ele>
        <time>2021-01-11T13:28:52Z</time>
      </trkpt>
      <trkpt lat="42.98241" lon="0.22442">
        <ele>931</ele>
        <time>2021-01-11T13:28:58Z</time>
      </trkpt>
      <trkpt lat="42.98244" lon="0.2244">
        <ele>931</ele>
        <time>2021-01-11T13:29:07Z</time>
      </trkpt>
      <trkpt lat="42.98247" lon="0.22439">
        <ele>931</ele>
        <time>2021-01-11T13:29:16Z</time>
      </trkpt>
      <trkpt lat="42.98256" lon="0.22437">
        <ele>931</ele>
        <time>2021-01-11T13:29:42Z</time>
      </trkpt>
      <trkpt lat="42.98259" lon="0.22437">
        <ele>931</ele>
        <time>2021-01-11T13:29:45Z</time>
      </trkpt>
      <trkpt lat="42.98264" lon="0.22435">
        <ele>931</ele>
        <time>2021-01-11T13:30:33Z</time>
      </trkpt>
      <trkpt lat="42.98271" lon="0.22433">
        <ele>931</ele>
        <time>2021-01-11T13:30:40Z</time>
      </trkpt>
      <trkpt lat="42.98294" lon="0.22429">
        <ele>931</ele>
        <time>2021-01-11T13:31:13Z</time>
      </trkpt>
      <trkpt lat="42.98322" lon="0.22426">
        <ele>931</ele>
        <time>2021-01-11T13:31:40Z</time>
      </trkpt>
      <trkpt lat="42.98325" lon="0.22425">
        <ele>930</ele>
        <time>2021-01-11T13:31:44Z</time>
      </trkpt>
      <trkpt lat="42.98347" lon="0.22423">
        <ele>931</ele>
        <time>2021-01-11T13:32:04Z</time>
      </trkpt>
      <trkpt lat="42.98355" lon="0.22422">
        <ele>930</ele>
        <time>2021-01-11T13:32:14Z</time>
      </trkpt>
      <trkpt lat="42.98359" lon="0.22421">
        <ele>930</ele>
        <time>2021-01-11T13:32:19Z</time>
      </trkpt>
      <trkpt lat="42.98362" lon="0.22418">
        <ele>928</ele>
        <time>2021-01-11T13:32:24Z</time>
      </trkpt>
      <trkpt lat="42.9838" lon="0.2243">
        <ele>927</ele>
        <time>2021-01-11T13:32:57Z</time>
      </trkpt>
      <trkpt lat="42.9841" lon="0.22423">
        <ele>929</ele>
        <time>2021-01-11T13:33:16Z</time>
      </trkpt>
      <trkpt lat="42.98419" lon="0.22422">
        <ele>930</ele>
        <time>2021-01-11T13:33:20Z</time>
      </trkpt>
      <trkpt lat="42.98421" lon="0.22418">
        <ele>927</ele>
        <time>2021-01-11T13:33:27Z</time>
      </trkpt>
      <trkpt lat="42.98434" lon="0.22413">
        <ele>924</ele>
        <time>2021-01-11T13:33:38Z</time>
      </trkpt>
      <trkpt lat="42.98462" lon="0.22408">
        <ele>922</ele>
        <time>2021-01-11T13:34:10Z</time>
      </trkpt>
      <trkpt lat="42.98465" lon="0.22406">
        <ele>922</ele>
        <time>2021-01-11T13:34:15Z</time>
      </trkpt>
      <trkpt lat="42.98471" lon="0.22406">
        <ele>921</ele>
        <time>2021-01-11T13:34:54Z</time>
      </trkpt>
      <trkpt lat="42.98482" lon="0.22409">
        <ele>920</ele>
        <time>2021-01-11T13:35:26Z</time>
      </trkpt>
      <trkpt lat="42.98499" lon="0.22405">
        <ele>913</ele>
        <time>2021-01-11T13:35:59Z</time>
      </trkpt>
      <trkpt lat="42.98504" lon="0.2241">
        <ele>911</ele>
        <time>2021-01-11T13:36:15Z</time>
      </trkpt>
      <trkpt lat="42.9851" lon="0.22416">
        <ele>910</ele>
        <time>2021-01-11T13:36:20Z</time>
      </trkpt>
      <trkpt lat="42.98527" lon="0.22438">
        <ele>904</ele>
        <time>2021-01-11T13:36:51Z</time>
      </trkpt>
      <trkpt lat="42.98532" lon="0.22442">
        <ele>903</ele>
        <time>2021-01-11T13:37:00Z</time>
      </trkpt>
      <trkpt lat="42.98535" lon="0.22449">
        <ele>901</ele>
        <time>2021-01-11T13:37:15Z</time>
      </trkpt>
      <trkpt lat="42.98533" lon="0.22474">
        <ele>896</ele>
        <time>2021-01-11T13:37:43Z</time>
      </trkpt>
      <trkpt lat="42.98529" lon="0.22479">
        <ele>894</ele>
        <time>2021-01-11T13:38:03Z</time>
      </trkpt>
      <trkpt lat="42.98514" lon="0.22491">
        <ele>887</ele>
        <time>2021-01-11T13:38:24Z</time>
      </trkpt>
      <trkpt lat="42.98509" lon="0.22496">
        <ele>887</ele>
        <time>2021-01-11T13:38:28Z</time>
      </trkpt>
      <trkpt lat="42.98499" lon="0.22504">
        <ele>883</ele>
        <time>2021-01-11T13:38:55Z</time>
      </trkpt>
      <trkpt lat="42.98495" lon="0.22509">
        <ele>881</ele>
        <time>2021-01-11T13:38:59Z</time>
      </trkpt>
      <trkpt lat="42.98485" lon="0.22519">
        <ele>878</ele>
        <time>2021-01-11T13:39:11Z</time>
      </trkpt>
      <trkpt lat="42.98482" lon="0.22522">
        <ele>877</ele>
        <time>2021-01-11T13:39:16Z</time>
      </trkpt>
      <trkpt lat="42.98479" lon="0.22526">
        <ele>876</ele>
        <time>2021-01-11T13:39:19Z</time>
      </trkpt>
      <trkpt lat="42.98469" lon="0.22535">
        <ele>873</ele>
        <time>2021-01-11T13:39:32Z</time>
      </trkpt>
      <trkpt lat="42.98465" lon="0.22538">
        <ele>872</ele>
        <time>2021-01-11T13:39:37Z</time>
      </trkpt>
      <trkpt lat="42.98455" lon="0.2255">
        <ele>869</ele>
        <time>2021-01-11T13:39:53Z</time>
      </trkpt>
      <trkpt lat="42.98452" lon="0.22553">
        <ele>868</ele>
        <time>2021-01-11T13:39:58Z</time>
      </trkpt>
      <trkpt lat="42.9845" lon="0.22557">
        <ele>868</ele>
        <time>2021-01-11T13:40:04Z</time>
      </trkpt>
      <trkpt lat="42.98448" lon="0.22563">
        <ele>867</ele>
        <time>2021-01-11T13:40:10Z</time>
      </trkpt>
      <trkpt lat="42.98448" lon="0.22568">
        <ele>864</ele>
        <time>2021-01-11T13:41:40Z</time>
      </trkpt>
      <trkpt lat="42.98449" lon="0.22574">
        <ele>863</ele>
        <time>2021-01-11T13:42:03Z</time>
      </trkpt>
      <trkpt lat="42.98452" lon="0.22591">
        <ele>859</ele>
        <time>2021-01-11T13:42:17Z</time>
      </trkpt>
      <trkpt lat="42.98453" lon="0.22596">
        <ele>857</ele>
        <time>2021-01-11T13:42:29Z</time>
      </trkpt>
      <trkpt lat="42.98454" lon="0.22603">
        <ele>857</ele>
        <time>2021-01-11T13:42:33Z</time>
      </trkpt>
      <trkpt lat="42.98456" lon="0.22607">
        <ele>855</ele>
        <time>2021-01-11T13:42:37Z</time>
      </trkpt>
      <trkpt lat="42.98457" lon="0.22613">
        <ele>854</ele>
        <time>2021-01-11T13:42:41Z</time>
      </trkpt>
      <trkpt lat="42.98454" lon="0.22619">
        <ele>854</ele>
        <time>2021-01-11T13:42:44Z</time>
      </trkpt>
      <trkpt lat="42.98451" lon="0.22621">
        <ele>854</ele>
        <time>2021-01-11T13:42:49Z</time>
      </trkpt>
      <trkpt lat="42.98449" lon="0.22621">
        <ele>854</ele>
        <time>2021-01-11T13:43:19Z</time>
      </trkpt>
      <trkpt lat="42.9844" lon="0.22621">
        <ele>853</ele>
        <time>2021-01-11T13:44:16Z</time>
      </trkpt>
      <trkpt lat="42.98435" lon="0.22621">
        <ele>852</ele>
        <time>2021-01-11T13:44:21Z</time>
      </trkpt>
      <trkpt lat="42.98429" lon="0.22626">
        <ele>852</ele>
        <time>2021-01-11T13:44:27Z</time>
      </trkpt>
      <trkpt lat="42.98424" lon="0.22626">
        <ele>852</ele>
        <time>2021-01-11T13:44:32Z</time>
      </trkpt>
      <trkpt lat="42.98418" lon="0.22627">
        <ele>852</ele>
        <time>2021-01-11T13:44:37Z</time>
      </trkpt>
      <trkpt lat="42.9841" lon="0.22629">
        <ele>852</ele>
        <time>2021-01-11T13:44:46Z</time>
      </trkpt>
      <trkpt lat="42.98406" lon="0.22631">
        <ele>852</ele>
        <time>2021-01-11T13:44:50Z</time>
      </trkpt>
      <trkpt lat="42.98404" lon="0.22637">
        <ele>852</ele>
        <time>2021-01-11T13:44:55Z</time>
      </trkpt>
      <trkpt lat="42.98405" lon="0.22652">
        <ele>851</ele>
        <time>2021-01-11T13:45:18Z</time>
      </trkpt>
      <trkpt lat="42.98405" lon="0.22658">
        <ele>851</ele>
        <time>2021-01-11T13:45:22Z</time>
      </trkpt>
      <trkpt lat="42.98408" lon="0.22661">
        <ele>850</ele>
        <time>2021-01-11T13:45:33Z</time>
      </trkpt>
      <trkpt lat="42.9841" lon="0.22655">
        <ele>849</ele>
        <time>2021-01-11T13:45:47Z</time>
      </trkpt>
      <trkpt lat="42.98414" lon="0.22652">
        <ele>849</ele>
        <time>2021-01-11T13:46:14Z</time>
      </trkpt>
      <trkpt lat="42.98417" lon="0.22654">
        <ele>849</ele>
        <time>2021-01-11T13:48:15Z</time>
      </trkpt>
      <trkpt lat="42.98427" lon="0.22666">
        <ele>848</ele>
        <time>2021-01-11T13:48:26Z</time>
      </trkpt>
      <trkpt lat="42.98433" lon="0.22671">
        <ele>846</ele>
        <time>2021-01-11T13:48:35Z</time>
      </trkpt>
      <trkpt lat="42.98436" lon="0.22676">
        <ele>845</ele>
        <time>2021-01-11T13:48:40Z</time>
      </trkpt>
      <trkpt lat="42.98436" lon="0.22684">
        <ele>845</ele>
        <time>2021-01-11T13:48:46Z</time>
      </trkpt>
      <trkpt lat="42.98435" lon="0.22688">
        <ele>846</ele>
        <time>2021-01-11T13:48:50Z</time>
      </trkpt>
      <trkpt lat="42.98434" lon="0.22694">
        <ele>846</ele>
        <time>2021-01-11T13:48:54Z</time>
      </trkpt>
      <trkpt lat="42.98435" lon="0.22699">
        <ele>846</ele>
        <time>2021-01-11T13:48:57Z</time>
      </trkpt>
      <trkpt lat="42.98438" lon="0.22701">
        <ele>844</ele>
        <time>2021-01-11T13:49:05Z</time>
      </trkpt>
      <trkpt lat="42.98439" lon="0.22704">
        <ele>843</ele>
        <time>2021-01-11T13:49:11Z</time>
      </trkpt>
    </trkseg>
  </trk>
</gpx>